CDN589 HKJK-CYUL
Flight info
| Callsign | CDN589 |
|---|---|
| Flight time | N/A |
| Altitude | 32000 |
| Route | NAKAT4B NAKAT UL433 NN UW325 SIPKI/N0504F310 UT325 BUN/N0502F320 UG862 KOBNI/N0495F340 UG862 DIR UB730 MNA UM999 MEZAB/N0479F360 UM999 ALM UN726 BAMBA N726 ORTOP DCT GUNTI/M083F360 DCT 42N024W/M083F380 45N036W 46N046W/N0484F380 DCT PORTI DCT KEBIG ROCKT3 |
| Aircraft | B77L/H-SDE1E2E3FGHIJ2J3J4J5M1RWXY/LB1D1 |
Departure
| Time | 2026-05-04 07:14 |
|---|---|
| Airport | Jomo Kenyatta International Airport (HKJK) |
Arrival
| Time | N/A |
|---|---|
| Airport | Montreal / Pierre Elliott Trudeau International Airport (CYUL) |
| Time | Latitude | Longitude | Altitude | Speed | Heading |
|---|---|---|---|---|---|
| 2026-05-04 06:57 | -1.33060 | 36.92299 | 5333 ft | 0 kts | 87° |
| 2026-05-04 07:06 | -1.33062 | 36.92260 | 5335 ft | 3 kts | 87° |
| 2026-05-04 07:06 | -1.33066 | 36.92241 | 5335 ft | 3 kts | 53° |
| 2026-05-04 07:06 | -1.33081 | 36.92228 | 5335 ft | 3 kts | 13° |
| 2026-05-04 07:07 | -1.33092 | 36.92227 | 5333 ft | 0 kts | 353° |
| 2026-05-04 07:09 | -1.33085 | 36.92226 | 5329 ft | 6 kts | 353° |
| 2026-05-04 07:09 | -1.33016 | 36.92221 | 5329 ft | 11 kts | 3° |
| 2026-05-04 07:10 | -1.32942 | 36.92240 | 5331 ft | 11 kts | 21° |
| 2026-05-04 07:10 | -1.32869 | 36.92250 | 5331 ft | 11 kts | 345° |
| 2026-05-04 07:12 | -1.32781 | 36.91664 | 5343 ft | 10 kts | 326° |
| 2026-05-04 07:12 | -1.32731 | 36.91677 | 5345 ft | 7 kts | 53° |
| 2026-05-04 07:12 | -1.32730 | 36.91678 | 5345 ft | 0 kts | 54° |
| 2026-05-04 07:12 | -1.32707 | 36.91709 | 5340 ft | 30 kts | 53° |
| 2026-05-04 07:13 | -1.32424 | 36.92095 | 5318 ft | 107 kts | 54° |
| 2026-05-04 07:13 | -1.31845 | 36.92889 | 5308 ft | 175 kts | 54° |
| 2026-05-04 07:13 | -1.31023 | 36.94015 | 5387 ft | 215 kts | 54° |
| 2026-05-04 07:14 | -1.27000 | 36.99431 | 7520 ft | 261 kts | 54° |
| 2026-05-04 07:14 | -1.25904 | 37.00912 | 8084 ft | 267 kts | 55° |
| 2026-05-04 07:15 | -1.24790 | 37.02417 | 8699 ft | 271 kts | 55° |
| 2026-05-04 07:15 | -1.23656 | 37.03950 | 9240 ft | 278 kts | 54° |
| 2026-05-04 07:15 | -1.22496 | 37.05519 | 9770 ft | 284 kts | 54° |
| 2026-05-04 07:15 | -1.21292 | 37.07107 | 10299 ft | 290 kts | 47° |
| 2026-05-04 07:16 | -1.19568 | 37.08244 | 10443 ft | 312 kts | 17° |
| 2026-05-04 07:16 | -1.17335 | 37.08355 | 10613 ft | 335 kts | 348° |
| 2026-05-04 07:16 | -1.15100 | 37.07470 | 10766 ft | 359 kts | 329° |
| 2026-05-04 07:16 | -1.13104 | 37.05869 | 11006 ft | 378 kts | 313° |
| 2026-05-04 07:17 | -1.11450 | 37.03784 | 11499 ft | 385 kts | 303° |
| 2026-05-04 07:17 | -1.10378 | 37.01309 | 11984 ft | 394 kts | 284° |
| 2026-05-04 07:17 | -1.09913 | 36.98587 | 12604 ft | 399 kts | 277° |
| 2026-05-04 07:17 | -1.09648 | 36.95807 | 13314 ft | 403 kts | 275° |
| 2026-05-04 07:18 | -1.09398 | 36.93001 | 13966 ft | 408 kts | 276° |
| 2026-05-04 07:18 | -1.09099 | 36.90201 | 14526 ft | 412 kts | 277° |
| 2026-05-04 07:18 | -1.08737 | 36.87348 | 15102 ft | 415 kts | 278° |
| 2026-05-04 07:18 | -1.08324 | 36.84472 | 15716 ft | 418 kts | 279° |
| 2026-05-04 07:19 | -1.07874 | 36.81584 | 16263 ft | 422 kts | 279° |
| 2026-05-04 07:19 | -1.07397 | 36.78659 | 16787 ft | 427 kts | 279° |
| 2026-05-04 07:19 | -1.06908 | 36.75723 | 17333 ft | 430 kts | 279° |
| 2026-05-04 07:19 | -1.06416 | 36.72795 | 17856 ft | 433 kts | 279° |
| 2026-05-04 07:20 | -1.05914 | 36.69817 | 18397 ft | 436 kts | 279° |
| 2026-05-04 07:20 | -1.05409 | 36.66816 | 18833 ft | 440 kts | 279° |
| 2026-05-04 07:20 | -1.04900 | 36.63785 | 19280 ft | 443 kts | 279° |
| 2026-05-04 07:20 | -1.04388 | 36.60735 | 19743 ft | 445 kts | 279° |
| 2026-05-04 07:22 | -1.00727 | 36.38877 | 22612 ft | 466 kts | 279° |
| 2026-05-04 07:22 | -1.00190 | 36.35671 | 22976 ft | 470 kts | 279° |
| 2026-05-04 07:23 | -0.99649 | 36.32439 | 23371 ft | 473 kts | 279° |
| 2026-05-04 07:23 | -0.99104 | 36.29186 | 23750 ft | 475 kts | 279° |
| 2026-05-04 07:23 | -0.98563 | 36.25955 | 24076 ft | 478 kts | 279° |
| 2026-05-04 07:23 | -0.98012 | 36.22668 | 24404 ft | 480 kts | 279° |
| 2026-05-04 07:24 | -0.97460 | 36.19369 | 24739 ft | 482 kts | 279° |
| 2026-05-04 07:24 | -0.96905 | 36.16059 | 25069 ft | 484 kts | 279° |
| 2026-05-04 07:24 | -0.96347 | 36.12724 | 25367 ft | 487 kts | 279° |
| 2026-05-04 07:24 | -0.95784 | 36.09367 | 25661 ft | 490 kts | 279° |
| 2026-05-04 07:25 | -0.95219 | 36.05995 | 25998 ft | 492 kts | 279° |
| 2026-05-04 07:26 | -0.91205 | 35.82048 | 28066 ft | 507 kts | 279° |
| 2026-05-04 07:27 | -0.90620 | 35.78564 | 28352 ft | 509 kts | 279° |
| 2026-05-04 07:27 | -0.90033 | 35.75059 | 28645 ft | 511 kts | 279° |
| 2026-05-04 07:27 | -0.89444 | 35.71554 | 28902 ft | 513 kts | 279° |
| 2026-05-04 07:27 | -0.88854 | 35.68029 | 29135 ft | 515 kts | 279° |
| 2026-05-04 07:28 | -0.88260 | 35.64482 | 29412 ft | 516 kts | 279° |
| 2026-05-04 07:28 | -0.87663 | 35.60926 | 29651 ft | 518 kts | 279° |
| 2026-05-04 07:28 | -0.87065 | 35.57366 | 29902 ft | 520 kts | 279° |
| 2026-05-04 07:28 | -0.86476 | 35.53852 | 30210 ft | 519 kts | 279° |
| 2026-05-04 07:29 | -0.85879 | 35.50291 | 30515 ft | 518 kts | 279° |
| 2026-05-04 07:29 | -0.85282 | 35.46733 | 30800 ft | 517 kts | 279° |
| 2026-05-04 07:29 | -0.84689 | 35.43192 | 31107 ft | 517 kts | 279° |
| 2026-05-04 07:29 | -0.84094 | 35.39644 | 31382 ft | 517 kts | 279° |
| 2026-05-04 07:30 | -0.83486 | 35.36102 | 31634 ft | 517 kts | 282° |
| 2026-05-04 07:30 | -0.82656 | 35.32601 | 31870 ft | 517 kts | 286° |
| 2026-05-04 07:30 | -0.81633 | 35.29154 | 32096 ft | 518 kts | 288° |
| 2026-05-04 07:30 | -0.80525 | 35.25710 | 32127 ft | 521 kts | 288° |
| 2026-05-04 07:31 | -0.78330 | 35.18880 | 32162 ft | 518 kts | 288° |
| 2026-05-04 07:33 | -0.70124 | 34.91412 | 32136 ft | 516 kts | 287° |
| 2026-05-04 07:33 | -0.68076 | 34.84533 | 32125 ft | 517 kts | 287° |
| 2026-05-04 07:34 | -0.66027 | 34.77645 | 32114 ft | 517 kts | 287° |
| 2026-05-04 07:34 | -0.63973 | 34.70746 | 32101 ft | 518 kts | 287° |
| 2026-05-04 07:35 | -0.61919 | 34.63844 | 32088 ft | 518 kts | 287° |
| 2026-05-04 07:35 | -0.59880 | 34.56973 | 32087 ft | 518 kts | 287° |
| 2026-05-04 07:36 | -0.57947 | 34.50027 | 32072 ft | 519 kts | 285° |
| 2026-05-04 07:38 | -0.50336 | 34.22240 | 32066 ft | 518 kts | 286° |
| 2026-05-04 07:38 | -0.48418 | 34.15281 | 32061 ft | 518 kts | 286° |
| 2026-05-04 07:39 | -0.46505 | 34.08336 | 32062 ft | 518 kts | 286° |
| 2026-05-04 07:39 | -0.44606 | 34.01441 | 32036 ft | 518 kts | 285° |
| 2026-05-04 07:40 | -0.42668 | 33.94499 | 32061 ft | 517 kts | 287° |
| 2026-05-04 07:40 | -0.40414 | 33.87673 | 32059 ft | 517 kts | 289° |
| 2026-05-04 07:41 | -0.38065 | 33.80871 | 32049 ft | 517 kts | 289° |
| 2026-05-04 07:41 | -0.35768 | 33.74050 | 32043 ft | 517 kts | 289° |
| 2026-05-04 07:42 | -0.33889 | 33.68379 | 32062 ft | 517 kts | 289° |
| 2026-05-04 07:42 | -0.31628 | 33.61550 | 32044 ft | 517 kts | 289° |
| 2026-05-04 07:43 | -0.29361 | 33.54718 | 32044 ft | 517 kts | 289° |
| 2026-05-04 07:43 | -0.27095 | 33.47894 | 32049 ft | 517 kts | 289° |
| 2026-05-04 07:44 | -0.24906 | 33.41095 | 32058 ft | 517 kts | 288° |
| 2026-05-04 07:44 | -0.22792 | 33.34224 | 32058 ft | 516 kts | 287° |
| 2026-05-04 07:45 | -0.20679 | 33.27356 | 32043 ft | 516 kts | 288° |
| 2026-05-04 07:45 | -0.18564 | 33.20537 | 32045 ft | 516 kts | 288° |
| 2026-05-04 07:46 | -0.16434 | 33.13691 | 32061 ft | 516 kts | 288° |
| 2026-05-04 07:46 | -0.14299 | 33.06830 | 32059 ft | 516 kts | 288° |
| 2026-05-04 07:47 | -0.12166 | 32.99974 | 32047 ft | 516 kts | 288° |
| 2026-05-04 07:49 | -0.03656 | 32.72605 | 32091 ft | 516 kts | 288° |
| 2026-05-04 07:49 | -0.01524 | 32.65749 | 32124 ft | 515 kts | 287° |
| 2026-05-04 07:50 | 0.00589 | 32.58954 | 32148 ft | 514 kts | 287° |
| 2026-05-04 07:50 | 0.02710 | 32.52131 | 32175 ft | 513 kts | 287° |
| 2026-05-04 07:51 | 0.05007 | 32.45387 | 32175 ft | 512 kts | 294° |
| 2026-05-04 07:51 | 0.08361 | 32.39130 | 32173 ft | 510 kts | 305° |
| 2026-05-04 07:52 | 0.12407 | 32.33306 | 32168 ft | 510 kts | 306° |
| 2026-05-04 07:52 | 0.16464 | 32.27479 | 32134 ft | 511 kts | 305° |
| 2026-05-04 07:54 | 0.32544 | 32.03977 | 32048 ft | 514 kts | 305° |
| 2026-05-04 07:55 | 0.36566 | 31.98069 | 32053 ft | 514 kts | 305° |
| 2026-05-04 07:55 | 0.40571 | 31.92157 | 32050 ft | 513 kts | 305° |
| 2026-05-04 07:56 | 0.44568 | 31.86257 | 32048 ft | 513 kts | 305° |
| 2026-05-04 07:56 | 0.48567 | 31.80360 | 32047 ft | 512 kts | 305° |
| 2026-05-04 07:57 | 0.52542 | 31.74499 | 32046 ft | 511 kts | 305° |
| 2026-05-04 07:57 | 0.56533 | 31.68613 | 32051 ft | 510 kts | 305° |
| 2026-05-04 07:58 | 0.60510 | 31.62747 | 32032 ft | 509 kts | 305° |
| 2026-05-04 07:58 | 0.64459 | 31.56924 | 32042 ft | 508 kts | 305° |
| 2026-05-04 07:59 | 0.68430 | 31.51077 | 32048 ft | 508 kts | 305° |
| 2026-05-04 07:59 | 0.72418 | 31.45240 | 32040 ft | 508 kts | 305° |
| 2026-05-04 08:00 | 0.76407 | 31.39401 | 32042 ft | 508 kts | 305° |
| 2026-05-04 08:02 | 0.92338 | 31.16045 | 32036 ft | 510 kts | 305° |
| 2026-05-04 08:02 | 0.96335 | 31.10185 | 32031 ft | 510 kts | 305° |
| 2026-05-04 08:03 | 1.00337 | 31.04318 | 32025 ft | 511 kts | 305° |
| 2026-05-04 08:03 | 1.04335 | 30.98455 | 32024 ft | 511 kts | 305° |
| 2026-05-04 08:04 | 1.08342 | 30.92579 | 32018 ft | 511 kts | 305° |
| 2026-05-04 08:04 | 1.12346 | 30.86705 | 32010 ft | 511 kts | 305° |
| 2026-05-04 08:05 | 1.16350 | 30.80833 | 32013 ft | 511 kts | 305° |
| 2026-05-04 08:05 | 1.20330 | 30.74996 | 31998 ft | 511 kts | 305° |
| 2026-05-04 08:06 | 1.24335 | 30.69119 | 31994 ft | 510 kts | 305° |
| 2026-05-04 08:06 | 1.28339 | 30.63265 | 31999 ft | 510 kts | 306° |
| 2026-05-04 08:08 | 1.44607 | 30.40054 | 32008 ft | 510 kts | 306° |
| 2026-05-04 08:11 | 1.63807 | 30.14633 | 32019 ft | 509 kts | 313° |
| 2026-05-04 08:11 | 1.70862 | 30.06705 | 32007 ft | 511 kts | 313° |
| 2026-05-04 08:12 | 1.75560 | 30.01364 | 32004 ft | 511 kts | 313° |
| 2026-05-04 08:12 | 1.80260 | 29.96013 | 32001 ft | 511 kts | 313° |
| 2026-05-04 08:13 | 1.84960 | 29.90667 | 31999 ft | 511 kts | 312° |
| 2026-05-04 08:13 | 1.89633 | 29.85353 | 31992 ft | 511 kts | 312° |
| 2026-05-04 08:14 | 1.94340 | 29.80018 | 31991 ft | 511 kts | 313° |
| 2026-05-04 08:16 | 2.13313 | 29.58919 | 31991 ft | 509 kts | 313° |
| 2026-05-04 08:16 | 2.18061 | 29.53663 | 31990 ft | 509 kts | 313° |
| 2026-05-04 08:17 | 2.22811 | 29.48404 | 31987 ft | 508 kts | 313° |
| 2026-05-04 08:17 | 2.27523 | 29.43192 | 31989 ft | 508 kts | 313° |
| 2026-05-04 08:19 | 2.46490 | 29.22192 | 31983 ft | 508 kts | 313° |
| 2026-05-04 08:20 | 2.51230 | 29.16941 | 31978 ft | 508 kts | 313° |
| 2026-05-04 08:20 | 2.55946 | 29.11718 | 31974 ft | 508 kts | 313° |
| 2026-05-04 08:21 | 2.60684 | 29.06469 | 31975 ft | 508 kts | 313° |
| 2026-05-04 08:21 | 2.65423 | 29.01218 | 31978 ft | 508 kts | 313° |
| 2026-05-04 08:22 | 2.70159 | 28.95970 | 31979 ft | 508 kts | 313° |
| 2026-05-04 08:24 | 2.89079 | 28.74994 | 31976 ft | 507 kts | 313° |
| 2026-05-04 08:24 | 2.93011 | 28.70637 | 31971 ft | 507 kts | 313° |
| 2026-05-04 08:25 | 2.97741 | 28.65402 | 31974 ft | 506 kts | 313° |
| 2026-05-04 08:25 | 3.03227 | 28.59327 | 31970 ft | 506 kts | 313° |
| 2026-05-04 08:27 | 3.21284 | 28.39311 | 31963 ft | 505 kts | 313° |
| 2026-05-04 08:28 | 3.25995 | 28.34088 | 31964 ft | 505 kts | 313° |
| 2026-05-04 08:28 | 3.30717 | 28.28852 | 31964 ft | 506 kts | 313° |
| 2026-05-04 08:29 | 3.35427 | 28.23627 | 31969 ft | 505 kts | 313° |
| 2026-05-04 08:31 | 3.54251 | 28.02740 | 31961 ft | 505 kts | 313° |
| 2026-05-04 08:33 | 3.73054 | 27.81865 | 31945 ft | 505 kts | 314° |
| 2026-05-04 08:35 | 3.91867 | 27.60963 | 31961 ft | 506 kts | 314° |
| 2026-05-04 08:35 | 3.96584 | 27.55720 | 31965 ft | 506 kts | 314° |
| 2026-05-04 08:37 | 4.13087 | 27.37369 | 31967 ft | 508 kts | 314° |
| 2026-05-04 08:38 | 4.17813 | 27.32109 | 31958 ft | 508 kts | 314° |
| 2026-05-04 08:38 | 4.22556 | 27.26833 | 31962 ft | 508 kts | 314° |
| 2026-05-04 08:40 | 4.41436 | 27.05814 | 31961 ft | 506 kts | 313° |
| 2026-05-04 08:41 | 4.46118 | 27.00599 | 31958 ft | 506 kts | 313° |
| 2026-05-04 08:41 | 4.50835 | 26.95345 | 31962 ft | 506 kts | 313° |
| 2026-05-04 08:42 | 4.55544 | 26.90097 | 31941 ft | 506 kts | 313° |
| 2026-05-04 08:42 | 4.60269 | 26.84830 | 31957 ft | 506 kts | 313° |
| 2026-05-04 08:43 | 4.64954 | 26.79608 | 31954 ft | 507 kts | 313° |
| 2026-05-04 08:43 | 4.69671 | 26.74349 | 31937 ft | 507 kts | 313° |
| 2026-05-04 08:44 | 4.74378 | 26.69098 | 31937 ft | 506 kts | 313° |
| 2026-05-04 08:46 | 4.93203 | 26.48092 | 31956 ft | 506 kts | 313° |
| 2026-05-04 08:46 | 4.97913 | 26.42832 | 31933 ft | 506 kts | 313° |
| 2026-05-04 08:47 | 5.02627 | 26.37568 | 31947 ft | 506 kts | 313° |
| 2026-05-04 08:47 | 5.07300 | 26.32348 | 31953 ft | 505 kts | 313° |
| 2026-05-04 08:48 | 5.12001 | 26.27095 | 31951 ft | 505 kts | 313° |
| 2026-05-04 08:48 | 5.16708 | 26.21833 | 31932 ft | 505 kts | 313° |
| 2026-05-04 08:49 | 5.21406 | 26.16580 | 31950 ft | 505 kts | 313° |
| 2026-05-04 08:50 | 5.37844 | 25.98270 | 31952 ft | 505 kts | 313° |
| 2026-05-04 08:51 | 5.42550 | 25.93032 | 31966 ft | 506 kts | 313° |
| 2026-05-04 08:51 | 5.44911 | 25.90403 | 32183 ft | 508 kts | 313° |
| 2026-05-04 08:51 | 5.47272 | 25.87773 | 32562 ft | 505 kts | 313° |
| 2026-05-04 08:52 | 5.49590 | 25.85189 | 32938 ft | 503 kts | 313° |
| 2026-05-04 08:52 | 5.51934 | 25.82577 | 33298 ft | 501 kts | 313° |
| 2026-05-04 08:52 | 5.54269 | 25.79976 | 33629 ft | 501 kts | 313° |
| 2026-05-04 08:52 | 5.56602 | 25.77377 | 33868 ft | 501 kts | 313° |
| 2026-05-04 08:54 | 5.75203 | 25.56635 | 33947 ft | 498 kts | 313° |
| 2026-05-04 08:55 | 5.79839 | 25.51460 | 33941 ft | 497 kts | 313° |
| 2026-05-04 08:55 | 5.84464 | 25.46280 | 33943 ft | 498 kts | 313° |
| 2026-05-04 09:01 | 6.33116 | 24.91762 | 33940 ft | 497 kts | 313° |
| 2026-05-04 09:01 | 6.37695 | 24.86624 | 33941 ft | 496 kts | 313° |
| 2026-05-04 09:02 | 6.42294 | 24.81466 | 33947 ft | 495 kts | 313° |
| 2026-05-04 09:02 | 6.46890 | 24.76309 | 33950 ft | 494 kts | 313° |
| 2026-05-04 09:03 | 6.51477 | 24.71160 | 33943 ft | 494 kts | 313° |
| 2026-05-04 09:03 | 6.56053 | 24.66022 | 33947 ft | 493 kts | 313° |
| 2026-05-04 09:04 | 6.60622 | 24.60889 | 33955 ft | 492 kts | 313° |
| 2026-05-04 09:04 | 6.65196 | 24.55750 | 33947 ft | 492 kts | 313° |
| 2026-05-04 09:05 | 6.69766 | 24.50617 | 33948 ft | 492 kts | 313° |
| 2026-05-04 09:05 | 6.74327 | 24.45489 | 33945 ft | 492 kts | 313° |
| 2026-05-04 09:06 | 6.78861 | 24.40389 | 33950 ft | 492 kts | 313° |
| 2026-05-04 09:08 | 6.96350 | 24.20708 | 33952 ft | 492 kts | 313° |
| 2026-05-04 09:08 | 7.00917 | 24.15563 | 33951 ft | 491 kts | 313° |
| 2026-05-04 09:09 | 7.05467 | 24.10436 | 33955 ft | 491 kts | 313° |
| 2026-05-04 09:09 | 7.10020 | 24.05306 | 33946 ft | 491 kts | 313° |
| 2026-05-04 09:10 | 7.14566 | 24.00181 | 33952 ft | 490 kts | 313° |
| 2026-05-04 09:10 | 7.19080 | 23.95091 | 33948 ft | 489 kts | 313° |
| 2026-05-04 09:11 | 7.23611 | 23.89980 | 33955 ft | 489 kts | 312° |
| 2026-05-04 09:11 | 7.28138 | 23.84870 | 33958 ft | 488 kts | 312° |
| 2026-05-04 09:12 | 7.32668 | 23.79755 | 33952 ft | 488 kts | 312° |
| 2026-05-04 09:14 | 7.50734 | 23.59350 | 33955 ft | 488 kts | 312° |
| 2026-05-04 09:14 | 7.55264 | 23.54233 | 33955 ft | 489 kts | 312° |
| 2026-05-04 09:15 | 7.59768 | 23.49142 | 33956 ft | 489 kts | 312° |
| 2026-05-04 09:15 | 7.64293 | 23.44025 | 33954 ft | 489 kts | 312° |
| 2026-05-04 09:17 | 7.84622 | 23.21012 | 33954 ft | 488 kts | 312° |
| 2026-05-04 09:18 | 7.89152 | 23.15879 | 33955 ft | 488 kts | 312° |
| 2026-05-04 09:18 | 7.93676 | 23.10751 | 33958 ft | 488 kts | 312° |
| 2026-05-04 09:19 | 7.98197 | 23.05624 | 33960 ft | 488 kts | 312° |
| 2026-05-04 09:19 | 8.02691 | 23.00526 | 33965 ft | 489 kts | 312° |
| 2026-05-04 09:20 | 8.07223 | 22.95384 | 33963 ft | 490 kts | 312° |
| 2026-05-04 09:20 | 8.11747 | 22.90245 | 33962 ft | 489 kts | 312° |
| 2026-05-04 09:21 | 8.16300 | 22.85140 | 33966 ft | 488 kts | 315° |
| 2026-05-04 09:21 | 8.21323 | 22.80545 | 33969 ft | 486 kts | 320° |
| 2026-05-04 09:22 | 8.26440 | 22.76067 | 33969 ft | 486 kts | 320° |
| 2026-05-04 09:22 | 8.31507 | 22.71603 | 33968 ft | 486 kts | 320° |
| 2026-05-04 09:23 | 8.36586 | 22.67091 | 33964 ft | 486 kts | 319° |
| 2026-05-04 09:23 | 8.41658 | 22.62573 | 33966 ft | 485 kts | 319° |
| 2026-05-04 09:25 | 8.61839 | 22.44584 | 33950 ft | 483 kts | 319° |
| 2026-05-04 09:26 | 8.66883 | 22.40085 | 33944 ft | 483 kts | 319° |
| 2026-05-04 09:26 | 8.71929 | 22.35584 | 33939 ft | 483 kts | 319° |
| 2026-05-04 09:27 | 8.76969 | 22.31085 | 33936 ft | 483 kts | 319° |
| 2026-05-04 09:27 | 8.81978 | 22.26612 | 33936 ft | 483 kts | 319° |
| 2026-05-04 09:28 | 8.87023 | 22.22106 | 33929 ft | 484 kts | 319° |
| 2026-05-04 09:28 | 8.92076 | 22.17590 | 33926 ft | 484 kts | 319° |
| 2026-05-04 09:29 | 8.97123 | 22.13078 | 33924 ft | 484 kts | 319° |
| 2026-05-04 09:29 | 9.02179 | 22.08557 | 33920 ft | 485 kts | 319° |
| 2026-05-04 09:30 | 9.07231 | 22.04036 | 33917 ft | 485 kts | 319° |
| 2026-05-04 09:30 | 9.12256 | 21.99539 | 33916 ft | 485 kts | 319° |
| 2026-05-04 09:31 | 9.17315 | 21.95009 | 33915 ft | 485 kts | 319° |
| 2026-05-04 09:31 | 9.22372 | 21.90479 | 33912 ft | 485 kts | 319° |
| 2026-05-04 09:32 | 9.27441 | 21.85936 | 33912 ft | 485 kts | 319° |
| 2026-05-04 09:34 | 9.47624 | 21.67830 | 33912 ft | 483 kts | 319° |
| 2026-05-04 09:34 | 9.52625 | 21.63339 | 33907 ft | 483 kts | 319° |
| 2026-05-04 09:35 | 9.57702 | 21.58866 | 33909 ft | 482 kts | 320° |
| 2026-05-04 09:35 | 9.62806 | 21.54450 | 33907 ft | 482 kts | 320° |
| 2026-05-04 09:37 | 9.83138 | 21.36765 | 33902 ft | 481 kts | 320° |
| 2026-05-04 09:38 | 9.88217 | 21.32335 | 33904 ft | 481 kts | 320° |
| 2026-05-04 09:38 | 9.93297 | 21.27904 | 33904 ft | 481 kts | 320° |
| 2026-05-04 09:39 | 9.98369 | 21.23477 | 33903 ft | 481 kts | 320° |
| 2026-05-04 09:39 | 10.03405 | 21.19080 | 33905 ft | 480 kts | 320° |
| 2026-05-04 09:40 | 10.08471 | 21.14655 | 33903 ft | 480 kts | 319° |
| 2026-05-04 09:40 | 10.13530 | 21.10234 | 33903 ft | 480 kts | 319° |
| 2026-05-04 09:42 | 10.33742 | 20.92552 | 33902 ft | 479 kts | 319° |
| 2026-05-04 09:43 | 10.38795 | 20.88127 | 33903 ft | 479 kts | 319° |
| 2026-05-04 09:43 | 10.43849 | 20.83699 | 33905 ft | 480 kts | 319° |
| 2026-05-04 09:44 | 10.48874 | 20.79293 | 33909 ft | 480 kts | 319° |
| 2026-05-04 09:46 | 10.69120 | 20.61526 | 33905 ft | 481 kts | 319° |
| 2026-05-04 09:46 | 10.74195 | 20.57067 | 33900 ft | 482 kts | 319° |
| 2026-05-04 09:47 | 10.79234 | 20.52639 | 33898 ft | 482 kts | 319° |
| 2026-05-04 09:49 | 10.99489 | 20.34815 | 33896 ft | 482 kts | 318° |
| 2026-05-04 09:51 | 11.17255 | 20.19152 | 33891 ft | 483 kts | 318° |
| 2026-05-04 09:51 | 11.21482 | 20.15423 | 33890 ft | 484 kts | 318° |
| 2026-05-04 09:52 | 11.26572 | 20.10929 | 33891 ft | 484 kts | 318° |
| 2026-05-04 09:52 | 11.31661 | 20.06433 | 33885 ft | 484 kts | 318° |
| 2026-05-04 09:53 | 11.36762 | 20.01926 | 33886 ft | 485 kts | 318° |
| 2026-05-04 09:53 | 11.41856 | 19.97422 | 33882 ft | 485 kts | 318° |
| 2026-05-04 09:54 | 11.46922 | 19.92940 | 33885 ft | 485 kts | 318° |
| 2026-05-04 09:54 | 11.52020 | 19.88427 | 33879 ft | 485 kts | 318° |
| 2026-05-04 09:55 | 11.57126 | 19.83905 | 33880 ft | 486 kts | 318° |
| 2026-05-04 09:55 | 11.62237 | 19.79376 | 33884 ft | 486 kts | 318° |
| 2026-05-04 09:56 | 11.67334 | 19.74840 | 33879 ft | 486 kts | 317° |
| 2026-05-04 09:56 | 11.72415 | 19.70275 | 33882 ft | 486 kts | 317° |
| 2026-05-04 09:57 | 11.77486 | 19.65713 | 33883 ft | 486 kts | 317° |
| 2026-05-04 09:57 | 11.82554 | 19.61155 | 33882 ft | 486 kts | 317° |
| 2026-05-04 09:58 | 11.87598 | 19.56620 | 33884 ft | 485 kts | 317° |
| 2026-05-04 09:58 | 11.92671 | 19.52058 | 33874 ft | 485 kts | 317° |
| 2026-05-04 10:00 | 12.12878 | 19.33857 | 33880 ft | 482 kts | 317° |
| 2026-05-04 10:04 | 12.47849 | 19.02264 | 33865 ft | 479 kts | 317° |
| 2026-05-04 10:04 | 12.52842 | 18.97744 | 33867 ft | 479 kts | 317° |
| 2026-05-04 10:05 | 12.57840 | 18.93217 | 33861 ft | 479 kts | 317° |
| 2026-05-04 10:05 | 12.62839 | 18.88686 | 33862 ft | 480 kts | 317° |
| 2026-05-04 10:06 | 12.67808 | 18.84177 | 33859 ft | 480 kts | 317° |
| 2026-05-04 10:06 | 12.72805 | 18.79640 | 33857 ft | 480 kts | 317° |
| 2026-05-04 10:08 | 12.90291 | 18.63753 | 33857 ft | 480 kts | 317° |
| 2026-05-04 10:08 | 12.95296 | 18.59203 | 33854 ft | 480 kts | 317° |
| 2026-05-04 10:09 | 13.00267 | 18.54681 | 33856 ft | 480 kts | 317° |
| 2026-05-04 10:09 | 13.05270 | 18.50127 | 33850 ft | 480 kts | 317° |
| 2026-05-04 10:10 | 13.10266 | 18.45576 | 33859 ft | 480 kts | 317° |
| 2026-05-04 10:10 | 13.15268 | 18.41017 | 33856 ft | 480 kts | 317° |
| 2026-05-04 10:11 | 13.20232 | 18.36491 | 33853 ft | 480 kts | 317° |
| 2026-05-04 10:11 | 13.25234 | 18.31927 | 33852 ft | 480 kts | 317° |
| 2026-05-04 10:12 | 13.30230 | 18.27366 | 33857 ft | 479 kts | 317° |
| 2026-05-04 10:12 | 13.35189 | 18.22834 | 33860 ft | 479 kts | 316° |
| 2026-05-04 10:13 | 13.40171 | 18.18281 | 33857 ft | 479 kts | 316° |
| 2026-05-04 10:13 | 13.45148 | 18.13729 | 33862 ft | 479 kts | 316° |
| 2026-05-04 10:14 | 13.50123 | 18.09175 | 33860 ft | 478 kts | 316° |
| 2026-05-04 10:16 | 13.69968 | 17.90974 | 33864 ft | 478 kts | 316° |
| 2026-05-04 10:16 | 13.74933 | 17.86413 | 33864 ft | 479 kts | 316° |
| 2026-05-04 10:17 | 13.79902 | 17.81846 | 33863 ft | 479 kts | 316° |
| 2026-05-04 10:19 | 13.99770 | 17.63559 | 33866 ft | 479 kts | 316° |
| 2026-05-04 10:19 | 14.04741 | 17.58976 | 33861 ft | 479 kts | 316° |
| 2026-05-04 10:20 | 14.09711 | 17.54391 | 33862 ft | 479 kts | 316° |
| 2026-05-04 10:20 | 14.14643 | 17.49839 | 33869 ft | 479 kts | 316° |
| 2026-05-04 10:21 | 14.19622 | 17.45241 | 33861 ft | 479 kts | 316° |
| 2026-05-04 10:21 | 14.24595 | 17.40645 | 33865 ft | 479 kts | 316° |
| 2026-05-04 10:22 | 14.32019 | 17.33779 | 33866 ft | 479 kts | 316° |
| 2026-05-04 10:23 | 14.36986 | 17.29182 | 33862 ft | 479 kts | 316° |
| 2026-05-04 10:25 | 14.56792 | 17.10820 | 33865 ft | 478 kts | 316° |
| 2026-05-04 10:25 | 14.61740 | 17.06224 | 33875 ft | 478 kts | 316° |
| 2026-05-04 10:26 | 14.66689 | 17.01627 | 33873 ft | 478 kts | 316° |
| 2026-05-04 10:26 | 14.71633 | 16.97033 | 33870 ft | 478 kts | 315° |
| 2026-05-04 10:27 | 14.76586 | 16.92428 | 33870 ft | 478 kts | 315° |
| 2026-05-04 10:27 | 14.81531 | 16.87825 | 33876 ft | 478 kts | 315° |
| 2026-05-04 10:28 | 14.86441 | 16.83251 | 33882 ft | 478 kts | 315° |
| 2026-05-04 10:28 | 14.91380 | 16.78648 | 33883 ft | 478 kts | 315° |
| 2026-05-04 10:29 | 14.96317 | 16.74044 | 33889 ft | 478 kts | 315° |
| 2026-05-04 10:29 | 15.01260 | 16.69431 | 33886 ft | 478 kts | 316° |
| 2026-05-04 10:30 | 15.06199 | 16.64818 | 33876 ft | 478 kts | 315° |
| 2026-05-04 10:30 | 15.11100 | 16.60238 | 33896 ft | 477 kts | 315° |
| 2026-05-04 10:31 | 15.16033 | 16.55626 | 33882 ft | 477 kts | 315° |
| 2026-05-04 10:32 | 15.33267 | 16.39486 | 33887 ft | 478 kts | 315° |
| 2026-05-04 10:33 | 15.38195 | 16.34865 | 33891 ft | 478 kts | 315° |
| 2026-05-04 10:33 | 15.43124 | 16.30238 | 33895 ft | 478 kts | 315° |
| 2026-05-04 10:34 | 15.47222 | 16.26390 | 33895 ft | 478 kts | 315° |
| 2026-05-04 10:34 | 15.52154 | 16.21756 | 33900 ft | 478 kts | 315° |
| 2026-05-04 10:35 | 15.57079 | 16.17125 | 33900 ft | 478 kts | 315° |
| 2026-05-04 10:35 | 15.62009 | 16.12486 | 33902 ft | 478 kts | 315° |
| 2026-05-04 10:36 | 15.66936 | 16.07847 | 33902 ft | 478 kts | 315° |
| 2026-05-04 10:36 | 15.71856 | 16.03211 | 33905 ft | 478 kts | 315° |
| 2026-05-04 10:37 | 15.76779 | 15.98570 | 33902 ft | 478 kts | 315° |
| 2026-05-04 10:37 | 15.81661 | 15.93964 | 33905 ft | 477 kts | 315° |
| 2026-05-04 10:39 | 15.98832 | 15.77738 | 33907 ft | 477 kts | 315° |
| 2026-05-04 10:40 | 16.03742 | 15.73091 | 33909 ft | 477 kts | 315° |
| 2026-05-04 10:40 | 16.08650 | 15.68443 | 33904 ft | 476 kts | 315° |
| 2026-05-04 10:41 | 16.13551 | 15.63798 | 33911 ft | 476 kts | 315° |
| 2026-05-04 10:41 | 16.18450 | 15.59152 | 33908 ft | 476 kts | 315° |
| 2026-05-04 10:42 | 16.23313 | 15.54536 | 33911 ft | 476 kts | 315° |
| 2026-05-04 10:42 | 16.28204 | 15.49891 | 33914 ft | 476 kts | 315° |
| 2026-05-04 10:43 | 16.33100 | 15.45238 | 33913 ft | 476 kts | 315° |
| 2026-05-04 10:45 | 16.52611 | 15.26661 | 33918 ft | 475 kts | 315° |
| 2026-05-04 10:45 | 16.57486 | 15.22011 | 33913 ft | 474 kts | 315° |
| 2026-05-04 10:46 | 16.62362 | 15.17357 | 33916 ft | 474 kts | 315° |
| 2026-05-04 10:46 | 16.67196 | 15.12740 | 33917 ft | 474 kts | 315° |
| 2026-05-04 10:47 | 16.72059 | 15.08091 | 33914 ft | 474 kts | 315° |
| 2026-05-04 10:47 | 16.76914 | 15.03447 | 33919 ft | 474 kts | 315° |
| 2026-05-04 10:49 | 16.96061 | 14.85099 | 33912 ft | 453 kts | 314° |
| 2026-05-04 10:50 | 17.00708 | 14.80645 | 33923 ft | 453 kts | 315° |
| 2026-05-04 10:52 | 17.19385 | 14.62707 | 33925 ft | 458 kts | 314° |
| 2026-05-04 10:52 | 17.24077 | 14.58192 | 33924 ft | 458 kts | 314° |
| 2026-05-04 10:54 | 17.42806 | 14.40126 | 33925 ft | 457 kts | 314° |
| 2026-05-04 10:56 | 17.61406 | 14.22120 | 33924 ft | 454 kts | 314° |
| 2026-05-04 10:57 | 17.66048 | 14.17618 | 33925 ft | 454 kts | 314° |
| 2026-05-04 10:57 | 17.70654 | 14.13146 | 33920 ft | 453 kts | 314° |
| 2026-05-04 10:58 | 17.75288 | 14.08644 | 33923 ft | 453 kts | 314° |
| 2026-05-04 10:58 | 17.79920 | 14.04142 | 33924 ft | 453 kts | 314° |
| 2026-05-04 10:59 | 17.84516 | 13.99672 | 33921 ft | 453 kts | 314° |
| 2026-05-04 10:59 | 17.89147 | 13.95167 | 33927 ft | 453 kts | 314° |
| 2026-05-04 11:00 | 17.93770 | 13.90663 | 33927 ft | 453 kts | 314° |
| 2026-05-04 11:02 | 18.12229 | 13.72648 | 33924 ft | 453 kts | 313° |
| 2026-05-04 11:05 | 18.46799 | 13.38759 | 33920 ft | 452 kts | 313° |
| 2026-05-04 11:06 | 18.51401 | 13.34234 | 33912 ft | 452 kts | 313° |
| 2026-05-04 11:06 | 18.55995 | 13.29712 | 33912 ft | 452 kts | 313° |
| 2026-05-04 11:10 | 18.87977 | 12.98134 | 33916 ft | 448 kts | 312° |
| 2026-05-04 11:12 | 19.04985 | 12.83668 | 33924 ft | 455 kts | 324° |
| 2026-05-04 11:12 | 19.07707 | 12.81964 | 33921 ft | 455 kts | 324° |
| 2026-05-04 11:12 | 19.13141 | 12.78545 | 33914 ft | 454 kts | 323° |
| 2026-05-04 11:13 | 19.18566 | 12.75108 | 33918 ft | 454 kts | 323° |
| 2026-05-04 11:13 | 19.23983 | 12.71661 | 33921 ft | 454 kts | 323° |
| 2026-05-04 11:14 | 19.29390 | 12.68216 | 33918 ft | 454 kts | 323° |
| 2026-05-04 11:16 | 19.50969 | 12.54446 | 33923 ft | 454 kts | 323° |
| 2026-05-04 11:16 | 19.56386 | 12.50982 | 33922 ft | 454 kts | 323° |
| 2026-05-04 11:17 | 19.61806 | 12.47515 | 33925 ft | 454 kts | 323° |
| 2026-05-04 11:19 | 19.82577 | 12.34198 | 33926 ft | 455 kts | 323° |
| 2026-05-04 11:19 | 19.87999 | 12.30716 | 33924 ft | 456 kts | 323° |
| 2026-05-04 11:20 | 19.93429 | 12.27225 | 33926 ft | 456 kts | 323° |
| 2026-05-04 11:20 | 19.98826 | 12.23753 | 33925 ft | 456 kts | 323° |
| 2026-05-04 11:22 | 20.20526 | 12.09762 | 33920 ft | 456 kts | 323° |
| 2026-05-04 11:23 | 20.25956 | 12.06255 | 33921 ft | 455 kts | 323° |
| 2026-05-04 11:25 | 20.44885 | 11.94003 | 33921 ft | 455 kts | 324° |
| 2026-05-04 11:25 | 20.50257 | 11.90519 | 33916 ft | 454 kts | 324° |
| 2026-05-04 11:27 | 20.74511 | 11.74776 | 33909 ft | 453 kts | 324° |
| 2026-05-04 11:28 | 20.79894 | 11.71275 | 33908 ft | 452 kts | 324° |
| 2026-05-04 11:28 | 20.85271 | 11.67774 | 33909 ft | 452 kts | 324° |
| 2026-05-04 11:29 | 20.90642 | 11.64275 | 33907 ft | 452 kts | 324° |
| 2026-05-04 11:29 | 20.96010 | 11.60774 | 33911 ft | 451 kts | 324° |
| 2026-05-04 11:33 | 21.33413 | 11.36285 | 33917 ft | 450 kts | 324° |
| 2026-05-04 11:33 | 21.38748 | 11.32778 | 33917 ft | 449 kts | 324° |
| 2026-05-04 11:34 | 21.44042 | 11.29295 | 33915 ft | 449 kts | 324° |
| 2026-05-04 11:34 | 21.49371 | 11.25785 | 33914 ft | 449 kts | 324° |
| 2026-05-04 11:35 | 21.54695 | 11.22276 | 33914 ft | 449 kts | 324° |
| 2026-05-04 11:35 | 21.60018 | 11.18764 | 33917 ft | 449 kts | 324° |
| 2026-05-04 11:36 | 21.65346 | 11.15246 | 33916 ft | 448 kts | 324° |
| 2026-05-04 11:36 | 21.70628 | 11.11755 | 33917 ft | 448 kts | 324° |
| 2026-05-04 11:37 | 21.75948 | 11.08236 | 33920 ft | 448 kts | 323° |
| 2026-05-04 11:37 | 21.81256 | 11.04722 | 33921 ft | 448 kts | 324° |
| 2026-05-04 11:38 | 21.86561 | 11.01207 | 33918 ft | 447 kts | 324° |
| 2026-05-04 11:38 | 21.91867 | 10.97688 | 33920 ft | 447 kts | 323° |
| 2026-05-04 11:39 | 21.97139 | 10.94188 | 33906 ft | 447 kts | 323° |
| 2026-05-04 11:41 | 22.15647 | 10.81878 | 33926 ft | 447 kts | 323° |
| 2026-05-04 11:41 | 22.20939 | 10.78352 | 33927 ft | 447 kts | 323° |
| 2026-05-04 11:42 | 22.26226 | 10.74825 | 33925 ft | 447 kts | 323° |
| 2026-05-04 11:42 | 22.31513 | 10.71294 | 33934 ft | 446 kts | 324° |
| 2026-05-04 11:43 | 22.36793 | 10.67766 | 33934 ft | 446 kts | 323° |
| 2026-05-04 11:43 | 22.42044 | 10.64254 | 33936 ft | 446 kts | 324° |
| 2026-05-04 11:44 | 22.47316 | 10.60724 | 33939 ft | 445 kts | 324° |
| 2026-05-04 11:44 | 22.52586 | 10.57192 | 33941 ft | 445 kts | 324° |
| 2026-05-04 11:45 | 22.57857 | 10.53656 | 33940 ft | 445 kts | 324° |
| 2026-05-04 11:45 | 22.63122 | 10.50122 | 33942 ft | 445 kts | 324° |
| 2026-05-04 11:46 | 22.68421 | 10.46723 | 33941 ft | 446 kts | 326° |
| 2026-05-04 11:46 | 22.73813 | 10.43399 | 33943 ft | 446 kts | 326° |
| 2026-05-04 11:47 | 22.79210 | 10.40062 | 33940 ft | 446 kts | 326° |
| 2026-05-04 11:47 | 22.84588 | 10.36708 | 33946 ft | 445 kts | 326° |
| 2026-05-04 11:48 | 22.89918 | 10.33372 | 33946 ft | 445 kts | 326° |
| 2026-05-04 11:48 | 22.95292 | 10.30003 | 33947 ft | 445 kts | 326° |
| 2026-05-04 11:49 | 23.00668 | 10.26630 | 33948 ft | 445 kts | 326° |
| 2026-05-04 11:49 | 23.06007 | 10.23278 | 33946 ft | 445 kts | 326° |
| 2026-05-04 11:50 | 23.11381 | 10.19901 | 33949 ft | 445 kts | 326° |
| 2026-05-04 11:50 | 23.16746 | 10.16527 | 33950 ft | 445 kts | 326° |
| 2026-05-04 11:51 | 23.22107 | 10.13151 | 33952 ft | 445 kts | 326° |
| 2026-05-04 11:51 | 23.27466 | 10.09774 | 33950 ft | 445 kts | 326° |
| 2026-05-04 11:52 | 23.32828 | 10.06392 | 33948 ft | 445 kts | 326° |
| 2026-05-04 11:52 | 23.38182 | 10.03012 | 33953 ft | 445 kts | 326° |
| 2026-05-04 11:53 | 23.43502 | 9.99650 | 33957 ft | 445 kts | 326° |
| 2026-05-04 11:53 | 23.48852 | 9.96266 | 33955 ft | 445 kts | 326° |
| 2026-05-04 11:55 | 23.70226 | 9.82713 | 33962 ft | 445 kts | 326° |
| 2026-05-04 11:56 | 23.75582 | 9.79308 | 33966 ft | 445 kts | 326° |
| 2026-05-04 11:56 | 23.80928 | 9.75907 | 33960 ft | 444 kts | 326° |
| 2026-05-04 11:57 | 23.86277 | 9.72502 | 33975 ft | 444 kts | 326° |
| 2026-05-04 11:57 | 23.91589 | 9.69115 | 33970 ft | 444 kts | 326° |
| 2026-05-04 11:58 | 23.96923 | 9.65712 | 33971 ft | 443 kts | 326° |
| 2026-05-04 11:58 | 24.02249 | 9.62311 | 34001 ft | 443 kts | 326° |
| 2026-05-04 11:59 | 24.07575 | 9.58905 | 34039 ft | 443 kts | 326° |
| 2026-05-04 11:59 | 24.12902 | 9.55496 | 34064 ft | 443 kts | 326° |
| 2026-05-04 12:00 | 24.18231 | 9.52082 | 34116 ft | 443 kts | 326° |
| 2026-05-04 12:00 | 24.23515 | 9.48694 | 34136 ft | 443 kts | 326° |
| 2026-05-04 12:01 | 24.28829 | 9.45284 | 34143 ft | 442 kts | 326° |
| 2026-05-04 12:02 | 24.47247 | 9.33065 | 34063 ft | 441 kts | 325° |
| 2026-05-04 12:03 | 24.51612 | 9.30160 | 34038 ft | 442 kts | 325° |
| 2026-05-04 12:03 | 24.56872 | 9.26658 | 34008 ft | 442 kts | 325° |
| 2026-05-04 12:04 | 24.62136 | 9.23152 | 33999 ft | 441 kts | 325° |
| 2026-05-04 12:04 | 24.67351 | 9.19673 | 33994 ft | 441 kts | 325° |
| 2026-05-04 12:05 | 24.72605 | 9.16165 | 33998 ft | 441 kts | 325° |
| 2026-05-04 12:05 | 24.77857 | 9.12655 | 34000 ft | 441 kts | 325° |
| 2026-05-04 12:06 | 24.83099 | 9.09149 | 34003 ft | 441 kts | 325° |
| 2026-05-04 12:06 | 24.88315 | 9.05656 | 34002 ft | 441 kts | 325° |
| 2026-05-04 12:07 | 24.93554 | 9.02146 | 34006 ft | 440 kts | 325° |
| 2026-05-04 12:07 | 24.98779 | 8.98638 | 33998 ft | 440 kts | 324° |
| 2026-05-04 12:08 | 25.04005 | 8.95128 | 34013 ft | 438 kts | 324° |
| 2026-05-04 12:08 | 25.09220 | 8.91620 | 33996 ft | 439 kts | 324° |
| 2026-05-04 12:09 | 25.14440 | 8.88108 | 33999 ft | 439 kts | 324° |
| 2026-05-04 12:09 | 25.19633 | 8.84609 | 33990 ft | 440 kts | 324° |
| 2026-05-04 12:10 | 25.24856 | 8.81087 | 33987 ft | 440 kts | 324° |
| 2026-05-04 12:10 | 25.30082 | 8.77559 | 33978 ft | 440 kts | 324° |
| 2026-05-04 12:11 | 25.35304 | 8.74030 | 33967 ft | 440 kts | 324° |
| 2026-05-04 12:11 | 25.40535 | 8.70491 | 33959 ft | 440 kts | 324° |
| 2026-05-04 12:12 | 25.45746 | 8.66962 | 33943 ft | 439 kts | 324° |
| 2026-05-04 12:12 | 25.50937 | 8.63444 | 33935 ft | 439 kts | 324° |
| 2026-05-04 12:14 | 25.71722 | 8.49317 | 33914 ft | 438 kts | 324° |
| 2026-05-04 12:15 | 25.76915 | 8.45780 | 33917 ft | 438 kts | 324° |
| 2026-05-04 12:15 | 25.82104 | 8.42239 | 33913 ft | 438 kts | 324° |
| 2026-05-04 12:16 | 25.87290 | 8.38696 | 33909 ft | 437 kts | 324° |
| 2026-05-04 12:16 | 25.92478 | 8.35151 | 33903 ft | 438 kts | 324° |
| 2026-05-04 12:17 | 25.97668 | 8.31599 | 33904 ft | 437 kts | 324° |
| 2026-05-04 12:17 | 26.02829 | 8.28084 | 33903 ft | 437 kts | 325° |
| 2026-05-04 12:18 | 26.08044 | 8.24593 | 33905 ft | 437 kts | 325° |
| 2026-05-04 12:18 | 26.13261 | 8.21105 | 33903 ft | 437 kts | 325° |
| 2026-05-04 12:19 | 26.18464 | 8.17614 | 33902 ft | 437 kts | 325° |
| 2026-05-04 12:19 | 26.23666 | 8.14115 | 33906 ft | 437 kts | 325° |
| 2026-05-04 12:20 | 26.28884 | 8.10600 | 33904 ft | 438 kts | 324° |
| 2026-05-04 12:20 | 26.34066 | 8.07108 | 33901 ft | 438 kts | 325° |
| 2026-05-04 12:21 | 26.39283 | 8.03587 | 33899 ft | 438 kts | 325° |
| 2026-05-04 12:21 | 26.44504 | 8.00060 | 33902 ft | 438 kts | 324° |
| 2026-05-04 12:22 | 26.49718 | 7.96534 | 33897 ft | 437 kts | 324° |
| 2026-05-04 12:22 | 26.54890 | 7.93032 | 33902 ft | 437 kts | 324° |
| 2026-05-04 12:23 | 26.60088 | 7.89509 | 33901 ft | 436 kts | 324° |
| 2026-05-04 12:23 | 26.65273 | 7.85991 | 33904 ft | 436 kts | 324° |
| 2026-05-04 12:24 | 26.70454 | 7.82472 | 33904 ft | 436 kts | 324° |
| 2026-05-04 12:24 | 26.75637 | 7.78948 | 33903 ft | 435 kts | 324° |
| 2026-05-04 12:25 | 26.80809 | 7.75427 | 33909 ft | 435 kts | 324° |
| 2026-05-04 12:25 | 26.85989 | 7.71898 | 33904 ft | 435 kts | 324° |
| 2026-05-04 12:26 | 26.91160 | 7.68370 | 33905 ft | 435 kts | 324° |
| 2026-05-04 12:26 | 26.96296 | 7.64863 | 33913 ft | 434 kts | 324° |
| 2026-05-04 12:27 | 27.01462 | 7.61331 | 33916 ft | 434 kts | 324° |
| 2026-05-04 12:27 | 27.06632 | 7.57792 | 33915 ft | 435 kts | 324° |
| 2026-05-04 12:28 | 27.11805 | 7.54247 | 33915 ft | 436 kts | 324° |
| 2026-05-04 12:28 | 27.16948 | 7.50720 | 33922 ft | 436 kts | 324° |
| 2026-05-04 12:29 | 27.22155 | 7.47145 | 33909 ft | 436 kts | 324° |
| 2026-05-04 12:29 | 27.27296 | 7.43612 | 33920 ft | 436 kts | 324° |
| 2026-05-04 12:30 | 27.32471 | 7.40050 | 33920 ft | 436 kts | 324° |
| 2026-05-04 12:30 | 27.37647 | 7.36484 | 33922 ft | 436 kts | 323° |
| 2026-05-04 12:31 | 27.42823 | 7.32914 | 33930 ft | 436 kts | 323° |
| 2026-05-04 12:31 | 27.48001 | 7.29339 | 33926 ft | 436 kts | 323° |
| 2026-05-04 12:32 | 27.55756 | 7.23977 | 33932 ft | 436 kts | 323° |
| 2026-05-04 12:33 | 27.60894 | 7.20419 | 33937 ft | 436 kts | 323° |
| 2026-05-04 12:33 | 27.66064 | 7.16836 | 33927 ft | 436 kts | 323° |
| 2026-05-04 12:34 | 27.71237 | 7.13246 | 33931 ft | 436 kts | 323° |
| 2026-05-04 12:34 | 27.76412 | 7.09651 | 33930 ft | 437 kts | 323° |
| 2026-05-04 12:35 | 27.81584 | 7.06052 | 33926 ft | 437 kts | 323° |
| 2026-05-04 12:35 | 27.86763 | 7.02446 | 33919 ft | 437 kts | 323° |
| 2026-05-04 12:36 | 27.91943 | 6.98835 | 33919 ft | 437 kts | 323° |
| 2026-05-04 12:36 | 27.97093 | 6.95241 | 33941 ft | 437 kts | 323° |
| 2026-05-04 12:37 | 28.02264 | 6.91627 | 33932 ft | 437 kts | 323° |
| 2026-05-04 12:37 | 28.07439 | 6.88007 | 33931 ft | 437 kts | 323° |
| 2026-05-04 12:38 | 28.12283 | 6.83937 | 33954 ft | 430 kts | 313° |
| 2026-05-04 12:38 | 28.16393 | 6.79030 | 33935 ft | 426 kts | 304° |
| 2026-05-04 12:39 | 28.19839 | 6.73579 | 33934 ft | 425 kts | 302° |
| 2026-05-04 12:39 | 28.23229 | 6.68073 | 33940 ft | 426 kts | 302° |
| 2026-05-04 12:40 | 28.26618 | 6.62602 | 33936 ft | 427 kts | 302° |
| 2026-05-04 12:40 | 28.30048 | 6.57088 | 33935 ft | 427 kts | 302° |
| 2026-05-04 12:41 | 28.33481 | 6.51574 | 33939 ft | 428 kts | 302° |
| 2026-05-04 12:41 | 28.36916 | 6.46049 | 33938 ft | 428 kts | 302° |
| 2026-05-04 12:42 | 28.40353 | 6.40512 | 33942 ft | 428 kts | 302° |
| 2026-05-04 12:42 | 28.43759 | 6.35018 | 33939 ft | 428 kts | 302° |
| 2026-05-04 12:43 | 28.47189 | 6.29478 | 33942 ft | 427 kts | 302° |
| 2026-05-04 12:43 | 28.50613 | 6.23941 | 33939 ft | 427 kts | 302° |
| 2026-05-04 12:44 | 28.54027 | 6.18410 | 33948 ft | 427 kts | 302° |
| 2026-05-04 12:44 | 28.57439 | 6.12878 | 33948 ft | 427 kts | 302° |
| 2026-05-04 12:45 | 28.60850 | 6.07350 | 33950 ft | 427 kts | 302° |
| 2026-05-04 12:45 | 28.64246 | 6.01842 | 33944 ft | 427 kts | 301° |
| 2026-05-04 12:46 | 28.67104 | 5.97199 | 33947 ft | 427 kts | 301° |
| 2026-05-04 12:46 | 28.70487 | 5.91695 | 33957 ft | 427 kts | 301° |
| 2026-05-04 12:47 | 28.73893 | 5.86149 | 33950 ft | 427 kts | 301° |
| 2026-05-04 12:47 | 28.77297 | 5.80596 | 33951 ft | 427 kts | 301° |
| 2026-05-04 12:48 | 28.80698 | 5.75041 | 33953 ft | 427 kts | 301° |
| 2026-05-04 12:48 | 28.84101 | 5.69476 | 33959 ft | 427 kts | 301° |
| 2026-05-04 12:49 | 28.87482 | 5.63939 | 33954 ft | 428 kts | 301° |
| 2026-05-04 12:49 | 28.90882 | 5.58365 | 33959 ft | 428 kts | 301° |
| 2026-05-04 12:50 | 28.94277 | 5.52790 | 33956 ft | 428 kts | 301° |
| 2026-05-04 12:50 | 28.97673 | 5.47206 | 33959 ft | 428 kts | 301° |
| 2026-05-04 12:51 | 29.01077 | 5.41603 | 33954 ft | 428 kts | 301° |
| 2026-05-04 12:51 | 29.04471 | 5.36006 | 33957 ft | 429 kts | 301° |
| 2026-05-04 12:52 | 29.07850 | 5.30429 | 33959 ft | 428 kts | 301° |
| 2026-05-04 12:52 | 29.11239 | 5.24827 | 33962 ft | 428 kts | 301° |
| 2026-05-04 12:53 | 29.14626 | 5.19220 | 33961 ft | 428 kts | 300° |
| 2026-05-04 12:53 | 29.18008 | 5.13613 | 33961 ft | 428 kts | 300° |
| 2026-05-04 12:54 | 29.21389 | 5.08002 | 33958 ft | 428 kts | 300° |
| 2026-05-04 12:54 | 29.24776 | 5.02372 | 33962 ft | 429 kts | 300° |
| 2026-05-04 12:55 | 29.28154 | 4.96787 | 33947 ft | 429 kts | 301° |
| 2026-05-04 12:55 | 29.31594 | 4.91184 | 33953 ft | 430 kts | 301° |
| 2026-05-04 12:56 | 29.35039 | 4.85571 | 33973 ft | 431 kts | 301° |
| 2026-05-04 12:56 | 29.38488 | 4.79931 | 33959 ft | 431 kts | 301° |
| 2026-05-04 12:57 | 29.41930 | 4.74292 | 33980 ft | 431 kts | 301° |
| 2026-05-04 12:57 | 29.45372 | 4.68644 | 33961 ft | 432 kts | 301° |
| 2026-05-04 12:58 | 29.48797 | 4.63014 | 33964 ft | 432 kts | 301° |
| 2026-05-04 12:58 | 29.52241 | 4.57346 | 33960 ft | 433 kts | 301° |
| 2026-05-04 12:59 | 29.55684 | 4.51673 | 33970 ft | 433 kts | 300° |
| 2026-05-04 12:59 | 29.59124 | 4.45995 | 33962 ft | 433 kts | 300° |
| 2026-05-04 13:00 | 29.62570 | 4.40301 | 33960 ft | 434 kts | 300° |
| 2026-05-04 13:00 | 29.66019 | 4.34592 | 33960 ft | 434 kts | 300° |
| 2026-05-04 13:01 | 29.69444 | 4.28916 | 33962 ft | 435 kts | 300° |
| 2026-05-04 13:01 | 29.72937 | 4.23233 | 33954 ft | 436 kts | 302° |
| 2026-05-04 13:02 | 29.76661 | 4.17695 | 33962 ft | 437 kts | 303° |
| 2026-05-04 13:02 | 29.80408 | 4.12168 | 33969 ft | 437 kts | 303° |
| 2026-05-04 13:03 | 29.84103 | 4.06644 | 33960 ft | 437 kts | 303° |
| 2026-05-04 13:03 | 29.87806 | 4.01068 | 33950 ft | 438 kts | 303° |
| 2026-05-04 13:04 | 29.91509 | 3.95482 | 33954 ft | 438 kts | 303° |
| 2026-05-04 13:04 | 29.95192 | 3.89921 | 33960 ft | 438 kts | 303° |
| 2026-05-04 13:05 | 29.98890 | 3.84329 | 33957 ft | 438 kts | 303° |
| 2026-05-04 13:05 | 30.02589 | 3.78729 | 33959 ft | 439 kts | 302° |
| 2026-05-04 13:06 | 30.06062 | 3.72972 | 33959 ft | 437 kts | 300° |
| 2026-05-04 13:06 | 30.09436 | 3.67122 | 33961 ft | 437 kts | 299° |
| 2026-05-04 13:07 | 30.12809 | 3.61270 | 33959 ft | 438 kts | 300° |
| 2026-05-04 13:07 | 30.16194 | 3.55413 | 33961 ft | 439 kts | 300° |
| 2026-05-04 13:08 | 30.19587 | 3.49545 | 33959 ft | 439 kts | 300° |
| 2026-05-04 13:08 | 30.22983 | 3.43665 | 33961 ft | 440 kts | 300° |
| 2026-05-04 13:09 | 30.26360 | 3.37810 | 33957 ft | 440 kts | 300° |
| 2026-05-04 13:09 | 30.29760 | 3.31903 | 33960 ft | 441 kts | 300° |
| 2026-05-04 13:10 | 30.33158 | 3.25992 | 33960 ft | 441 kts | 300° |
| 2026-05-04 13:10 | 30.36564 | 3.20058 | 33961 ft | 442 kts | 300° |
| 2026-05-04 13:11 | 30.39966 | 3.14124 | 33980 ft | 442 kts | 300° |
| 2026-05-04 13:11 | 30.43343 | 3.08223 | 34002 ft | 442 kts | 300° |
| 2026-05-04 13:12 | 30.46736 | 3.02284 | 34019 ft | 442 kts | 300° |
| 2026-05-04 13:12 | 30.50132 | 2.96332 | 34044 ft | 442 kts | 299° |
| 2026-05-04 13:13 | 30.53525 | 2.90377 | 34025 ft | 442 kts | 299° |
| 2026-05-04 13:13 | 30.57063 | 2.84589 | 34026 ft | 445 kts | 306° |
| 2026-05-04 13:14 | 30.61182 | 2.79200 | 34029 ft | 447 kts | 307° |
| 2026-05-04 13:14 | 30.65323 | 2.73812 | 34010 ft | 447 kts | 307° |
| 2026-05-04 13:15 | 30.69460 | 2.68391 | 34004 ft | 447 kts | 307° |
| 2026-05-04 13:15 | 30.73562 | 2.62990 | 33987 ft | 448 kts | 307° |
| 2026-05-04 13:16 | 30.77690 | 2.57542 | 33970 ft | 448 kts | 307° |
| 2026-05-04 13:16 | 30.81817 | 2.52088 | 33974 ft | 448 kts | 307° |
| 2026-05-04 13:17 | 30.85912 | 2.46669 | 33952 ft | 449 kts | 307° |
| 2026-05-04 13:17 | 30.90029 | 2.41213 | 33953 ft | 449 kts | 307° |
| 2026-05-04 13:18 | 30.94158 | 2.35734 | 33956 ft | 449 kts | 307° |
| 2026-05-04 13:18 | 30.98285 | 2.30251 | 33958 ft | 449 kts | 307° |
| 2026-05-04 13:19 | 31.02404 | 2.24770 | 33958 ft | 450 kts | 307° |
| 2026-05-04 13:19 | 31.06524 | 2.19279 | 33960 ft | 450 kts | 307° |
| 2026-05-04 13:20 | 31.10649 | 2.13774 | 33965 ft | 450 kts | 307° |
| 2026-05-04 13:20 | 31.14749 | 2.08294 | 33960 ft | 451 kts | 307° |
| 2026-05-04 13:21 | 31.18873 | 2.02774 | 33963 ft | 451 kts | 307° |
| 2026-05-04 13:21 | 31.22995 | 1.97249 | 33955 ft | 451 kts | 307° |
| 2026-05-04 13:22 | 31.27113 | 1.91723 | 33960 ft | 450 kts | 307° |
| 2026-05-04 13:22 | 31.31224 | 1.86197 | 33955 ft | 450 kts | 307° |
| 2026-05-04 13:23 | 31.35329 | 1.80670 | 33959 ft | 449 kts | 307° |
| 2026-05-04 13:23 | 31.39413 | 1.75163 | 34277 ft | 451 kts | 306° |
| 2026-05-04 13:23 | 31.41462 | 1.72399 | 34716 ft | 447 kts | 306° |
| 2026-05-04 13:24 | 31.43489 | 1.69664 | 35170 ft | 443 kts | 306° |
| 2026-05-04 13:24 | 31.45501 | 1.66945 | 35584 ft | 440 kts | 306° |
| 2026-05-04 13:24 | 31.47501 | 1.64241 | 35875 ft | 439 kts | 306° |
| 2026-05-04 13:25 | 31.53534 | 1.56063 | 35941 ft | 440 kts | 306° |
| 2026-05-04 13:25 | 31.57516 | 1.50704 | 35950 ft | 438 kts | 308° |
| 2026-05-04 13:26 | 31.62014 | 1.45817 | 35948 ft | 441 kts | 313° |
| 2026-05-04 13:26 | 31.66663 | 1.41116 | 35948 ft | 441 kts | 313° |
| 2026-05-04 13:27 | 31.71296 | 1.36392 | 35954 ft | 441 kts | 313° |
| 2026-05-04 13:27 | 31.75922 | 1.31644 | 35949 ft | 441 kts | 313° |
| 2026-05-04 13:28 | 31.80531 | 1.26904 | 35954 ft | 442 kts | 313° |
| 2026-05-04 13:28 | 31.84393 | 1.22928 | 35956 ft | 443 kts | 313° |
| 2026-05-04 13:29 | 31.88953 | 1.18058 | 35964 ft | 441 kts | 308° |
| 2026-05-04 13:29 | 31.92992 | 1.12646 | 35945 ft | 439 kts | 306° |
| 2026-05-04 13:30 | 31.96956 | 1.07221 | 35945 ft | 439 kts | 306° |
| 2026-05-04 13:30 | 32.00953 | 1.01770 | 35950 ft | 440 kts | 306° |
| 2026-05-04 13:31 | 32.04971 | 0.96302 | 35946 ft | 440 kts | 306° |
| 2026-05-04 13:31 | 32.08959 | 0.90877 | 35951 ft | 440 kts | 306° |
| 2026-05-04 13:32 | 32.12963 | 0.85422 | 35953 ft | 440 kts | 306° |
| 2026-05-04 13:32 | 32.16966 | 0.79958 | 35954 ft | 439 kts | 306° |
| 2026-05-04 13:33 | 32.20963 | 0.74496 | 35956 ft | 439 kts | 306° |
| 2026-05-04 13:33 | 32.24960 | 0.69025 | 35955 ft | 439 kts | 306° |
| 2026-05-04 13:34 | 32.28946 | 0.63562 | 35958 ft | 439 kts | 306° |
| 2026-05-04 13:34 | 32.32931 | 0.58090 | 35958 ft | 439 kts | 306° |
| 2026-05-04 13:35 | 32.38877 | 0.49913 | 35961 ft | 438 kts | 306° |
| 2026-05-04 13:36 | 32.42853 | 0.44434 | 35966 ft | 438 kts | 306° |
| 2026-05-04 13:36 | 32.46829 | 0.38948 | 35969 ft | 438 kts | 306° |
| 2026-05-04 13:37 | 32.50785 | 0.33480 | 35968 ft | 438 kts | 306° |
| 2026-05-04 13:37 | 32.54752 | 0.27989 | 35970 ft | 439 kts | 305° |
| 2026-05-04 13:38 | 32.58727 | 0.22480 | 35970 ft | 439 kts | 305° |
| 2026-05-04 13:38 | 32.62697 | 0.16969 | 35976 ft | 439 kts | 305° |
| 2026-05-04 13:39 | 32.66665 | 0.11452 | 35974 ft | 439 kts | 305° |
| 2026-05-04 13:39 | 32.70609 | 0.05960 | 35978 ft | 439 kts | 305° |
| 2026-05-04 13:40 | 32.74580 | 0.00424 | 35983 ft | 440 kts | 305° |
| 2026-05-04 13:40 | 32.78552 | -0.05124 | 35983 ft | 440 kts | 305° |
| 2026-05-04 13:41 | 32.82522 | -0.10675 | 35998 ft | 440 kts | 305° |
| 2026-05-04 13:41 | 32.86461 | -0.16192 | 35982 ft | 440 kts | 305° |
| 2026-05-04 13:42 | 32.92404 | -0.24532 | 36005 ft | 440 kts | 305° |
| 2026-05-04 13:42 | 32.96367 | -0.30105 | 35993 ft | 441 kts | 305° |
| 2026-05-04 13:43 | 33.00330 | -0.35685 | 35994 ft | 441 kts | 304° |
| 2026-05-04 13:43 | 33.04287 | -0.41265 | 35997 ft | 441 kts | 304° |
| 2026-05-04 13:44 | 33.08222 | -0.46823 | 35990 ft | 441 kts | 304° |
| 2026-05-04 13:44 | 33.12179 | -0.52422 | 35995 ft | 441 kts | 304° |
| 2026-05-04 13:45 | 33.16138 | -0.58030 | 35988 ft | 442 kts | 304° |
| 2026-05-04 13:45 | 33.20100 | -0.63653 | 35991 ft | 442 kts | 304° |
| 2026-05-04 13:46 | 33.24063 | -0.69285 | 35981 ft | 442 kts | 304° |
| 2026-05-04 13:46 | 33.27999 | -0.74887 | 35981 ft | 443 kts | 304° |
| 2026-05-04 13:47 | 33.31958 | -0.80530 | 35971 ft | 443 kts | 304° |
| 2026-05-04 13:47 | 33.35912 | -0.86176 | 35948 ft | 442 kts | 304° |
| 2026-05-04 13:48 | 33.39862 | -0.91825 | 35972 ft | 443 kts | 304° |
| 2026-05-04 13:48 | 33.43814 | -0.97484 | 35962 ft | 443 kts | 304° |
| 2026-05-04 13:49 | 33.47768 | -1.03156 | 35960 ft | 443 kts | 304° |
| 2026-05-04 13:49 | 33.51720 | -1.08834 | 35967 ft | 443 kts | 304° |
| 2026-05-04 13:50 | 33.55639 | -1.14473 | 35970 ft | 443 kts | 304° |
| 2026-05-04 13:50 | 33.59581 | -1.20156 | 35969 ft | 443 kts | 304° |
| 2026-05-04 13:51 | 33.63520 | -1.25841 | 35967 ft | 443 kts | 303° |
| 2026-05-04 13:51 | 33.67459 | -1.31536 | 35974 ft | 443 kts | 303° |
| 2026-05-04 13:52 | 33.73351 | -1.40072 | 35976 ft | 443 kts | 303° |
| 2026-05-04 13:53 | 33.77280 | -1.45775 | 35982 ft | 442 kts | 303° |
| 2026-05-04 13:53 | 33.81177 | -1.51442 | 35985 ft | 442 kts | 303° |
| 2026-05-04 13:54 | 33.87058 | -1.60009 | 35996 ft | 442 kts | 303° |
| 2026-05-04 13:55 | 33.92634 | -1.68771 | 36000 ft | 438 kts | 300° |
| 2026-05-04 13:55 | 33.97980 | -1.77703 | 36006 ft | 438 kts | 300° |
| 2026-05-04 13:56 | 34.01552 | -1.83655 | 36006 ft | 438 kts | 300° |
| 2026-05-04 13:57 | 34.06896 | -1.92550 | 36009 ft | 438 kts | 300° |
| 2026-05-04 13:58 | 34.14049 | -2.04484 | 36012 ft | 439 kts | 300° |
| 2026-05-04 13:58 | 34.19406 | -2.13450 | 36019 ft | 439 kts | 300° |
| 2026-05-04 13:59 | 34.22988 | -2.19455 | 36029 ft | 439 kts | 299° |
| 2026-05-04 14:00 | 34.28321 | -2.28418 | 36028 ft | 439 kts | 299° |
| 2026-05-04 14:00 | 34.33670 | -2.37430 | 36043 ft | 438 kts | 299° |
| 2026-05-04 14:01 | 34.37206 | -2.43397 | 36037 ft | 438 kts | 299° |
| 2026-05-04 14:02 | 34.42532 | -2.52409 | 36029 ft | 439 kts | 299° |
| 2026-05-04 14:02 | 34.46076 | -2.58417 | 36047 ft | 438 kts | 298° |
| 2026-05-04 14:03 | 34.49624 | -2.64442 | 36031 ft | 438 kts | 298° |
| 2026-05-04 14:03 | 34.53158 | -2.70453 | 36030 ft | 437 kts | 298° |
| 2026-05-04 14:04 | 34.58447 | -2.79463 | 36028 ft | 436 kts | 298° |
| 2026-05-04 14:04 | 34.61946 | -2.85427 | 36030 ft | 436 kts | 298° |
| 2026-05-04 14:05 | 34.67224 | -2.94441 | 36028 ft | 435 kts | 298° |
| 2026-05-04 14:06 | 34.70728 | -3.00440 | 36030 ft | 435 kts | 298° |
| 2026-05-04 14:06 | 34.74205 | -3.06401 | 36037 ft | 434 kts | 298° |
| 2026-05-04 14:07 | 34.77690 | -3.12393 | 36044 ft | 433 kts | 298° |
| 2026-05-04 14:07 | 34.81173 | -3.18386 | 36035 ft | 434 kts | 298° |
| 2026-05-04 14:08 | 34.84652 | -3.24382 | 36023 ft | 433 kts | 298° |
| 2026-05-04 14:08 | 34.88103 | -3.30342 | 36029 ft | 433 kts | 298° |
| 2026-05-04 14:09 | 34.93320 | -3.39370 | 36022 ft | 434 kts | 298° |
| 2026-05-04 14:10 | 34.98527 | -3.48403 | 36041 ft | 434 kts | 298° |
| 2026-05-04 14:10 | 35.01406 | -3.53406 | 36046 ft | 433 kts | 297° |
| 2026-05-04 14:11 | 35.04866 | -3.59431 | 36057 ft | 433 kts | 298° |
| 2026-05-04 14:11 | 35.10047 | -3.68470 | 36049 ft | 433 kts | 297° |
| 2026-05-04 14:12 | 35.13494 | -3.74497 | 36049 ft | 431 kts | 297° |
| 2026-05-04 14:13 | 35.18372 | -3.83667 | 36062 ft | 423 kts | 291° |
| 2026-05-04 14:13 | 35.20661 | -3.90176 | 36054 ft | 416 kts | 284° |
| 2026-05-04 14:14 | 35.22539 | -3.96862 | 36062 ft | 415 kts | 283° |
| 2026-05-04 14:14 | 35.25349 | -4.06914 | 36052 ft | 415 kts | 283° |
| 2026-05-04 14:15 | 35.29109 | -4.20296 | 36058 ft | 415 kts | 283° |
| 2026-05-04 14:16 | 35.31910 | -4.30294 | 36051 ft | 415 kts | 283° |
| 2026-05-04 14:17 | 35.34715 | -4.40339 | 36048 ft | 415 kts | 283° |
| 2026-05-04 14:18 | 35.37508 | -4.50381 | 36040 ft | 415 kts | 283° |
| 2026-05-04 14:19 | 35.41204 | -4.63729 | 36042 ft | 415 kts | 283° |
| 2026-05-04 14:19 | 35.43053 | -4.70430 | 36033 ft | 414 kts | 283° |
| 2026-05-04 14:20 | 35.44895 | -4.77122 | 36030 ft | 414 kts | 283° |
| 2026-05-04 14:20 | 35.46737 | -4.83833 | 36031 ft | 414 kts | 283° |
| 2026-05-04 14:21 | 35.49487 | -4.93879 | 36029 ft | 414 kts | 283° |
| 2026-05-04 14:21 | 35.51306 | -5.00544 | 36029 ft | 414 kts | 283° |
| 2026-05-04 14:22 | 35.53131 | -5.07251 | 36025 ft | 414 kts | 283° |
| 2026-05-04 14:22 | 35.54954 | -5.13964 | 36025 ft | 414 kts | 283° |
| 2026-05-04 14:23 | 35.57681 | -5.24041 | 36012 ft | 414 kts | 283° |
| 2026-05-04 14:24 | 35.59494 | -5.30760 | 36017 ft | 414 kts | 283° |
| 2026-05-04 14:24 | 35.61018 | -5.37510 | 36016 ft | 411 kts | 280° |
| 2026-05-04 14:25 | 35.62440 | -5.44307 | 36021 ft | 410 kts | 280° |
| 2026-05-04 14:25 | 35.64664 | -5.54512 | 36049 ft | 413 kts | 281° |
| 2026-05-04 14:26 | 35.66272 | -5.61290 | 36041 ft | 415 kts | 282° |
| 2026-05-04 14:26 | 35.67882 | -5.68115 | 36066 ft | 416 kts | 281° |
| 2026-05-04 14:27 | 35.69476 | -5.74947 | 36077 ft | 415 kts | 281° |
| 2026-05-04 14:27 | 35.71062 | -5.81782 | 36076 ft | 415 kts | 281° |
| 2026-05-04 14:28 | 35.72643 | -5.88614 | 36079 ft | 414 kts | 281° |
| 2026-05-04 14:28 | 35.74160 | -5.95459 | 36079 ft | 413 kts | 279° |
| 2026-05-04 14:29 | 35.76730 | -6.09183 | 36077 ft | 412 kts | 279° |
| 2026-05-04 14:30 | 35.78036 | -6.16052 | 36077 ft | 412 kts | 279° |
| 2026-05-04 14:31 | 35.79998 | -6.26347 | 36080 ft | 411 kts | 279° |
| 2026-05-04 14:32 | 35.82433 | -6.40085 | 36069 ft | 410 kts | 278° |
| 2026-05-04 14:32 | 35.83638 | -6.46955 | 36072 ft | 410 kts | 279° |
| 2026-05-04 14:33 | 35.85059 | -6.53728 | 36074 ft | 411 kts | 281° |
| 2026-05-04 14:33 | 35.86544 | -6.60532 | 36077 ft | 411 kts | 281° |
| 2026-05-04 14:34 | 35.88001 | -6.67341 | 36078 ft | 410 kts | 281° |
| 2026-05-04 14:34 | 35.89440 | -6.74164 | 36079 ft | 410 kts | 281° |
| 2026-05-04 14:35 | 35.90868 | -6.80985 | 36080 ft | 410 kts | 281° |
| 2026-05-04 14:35 | 35.92283 | -6.87763 | 36080 ft | 410 kts | 281° |
| 2026-05-04 14:36 | 35.93703 | -6.94586 | 36080 ft | 410 kts | 280° |
| 2026-05-04 14:36 | 35.95121 | -7.01415 | 36081 ft | 410 kts | 280° |
| 2026-05-04 14:37 | 35.96536 | -7.08256 | 36080 ft | 411 kts | 281° |
| 2026-05-04 14:37 | 35.97947 | -7.15096 | 36081 ft | 411 kts | 281° |
| 2026-05-04 14:38 | 35.99354 | -7.21942 | 36083 ft | 411 kts | 280° |
| 2026-05-04 14:38 | 36.00748 | -7.28735 | 36080 ft | 411 kts | 281° |
| 2026-05-04 14:39 | 36.02211 | -7.35570 | 36087 ft | 413 kts | 284° |
| 2026-05-04 14:39 | 36.04370 | -7.42185 | 36083 ft | 418 kts | 291° |
| 2026-05-04 14:40 | 36.08531 | -7.51698 | 36086 ft | 420 kts | 293° |
| 2026-05-04 14:40 | 36.11328 | -7.58049 | 36083 ft | 420 kts | 293° |
| 2026-05-04 14:41 | 36.14092 | -7.64366 | 36080 ft | 420 kts | 293° |
| 2026-05-04 14:42 | 36.19645 | -7.77139 | 36082 ft | 421 kts | 293° |
| 2026-05-04 14:42 | 36.22421 | -7.83546 | 36082 ft | 421 kts | 293° |
| 2026-05-04 14:43 | 36.25176 | -7.89915 | 36087 ft | 422 kts | 293° |
| 2026-05-04 14:43 | 36.27947 | -7.96336 | 36087 ft | 423 kts | 293° |
| 2026-05-04 14:44 | 36.30720 | -8.02773 | 36086 ft | 423 kts | 293° |
| 2026-05-04 14:44 | 36.33497 | -8.09231 | 36085 ft | 424 kts | 293° |
| 2026-05-04 14:45 | 36.36272 | -8.15697 | 36085 ft | 425 kts | 293° |
| 2026-05-04 14:45 | 36.39047 | -8.22176 | 36085 ft | 425 kts | 293° |
| 2026-05-04 14:46 | 36.41809 | -8.28638 | 36088 ft | 426 kts | 293° |
| 2026-05-04 14:46 | 36.44585 | -8.35147 | 36090 ft | 427 kts | 293° |
| 2026-05-04 14:47 | 36.47364 | -8.41673 | 36088 ft | 427 kts | 293° |
| 2026-05-04 14:47 | 36.50143 | -8.48214 | 36091 ft | 428 kts | 293° |
| 2026-05-04 14:48 | 36.52923 | -8.54769 | 36091 ft | 428 kts | 294° |
| 2026-05-04 14:48 | 36.55700 | -8.61333 | 36093 ft | 429 kts | 294° |
| 2026-05-04 14:49 | 36.58477 | -8.67906 | 36094 ft | 429 kts | 294° |
| 2026-05-04 14:49 | 36.61250 | -8.74485 | 36099 ft | 429 kts | 294° |
| 2026-05-04 14:50 | 36.64024 | -8.81081 | 36085 ft | 430 kts | 294° |
| 2026-05-04 14:50 | 36.66777 | -8.87638 | 36091 ft | 430 kts | 294° |
| 2026-05-04 14:51 | 36.69545 | -8.94245 | 36095 ft | 430 kts | 294° |
| 2026-05-04 14:51 | 36.72305 | -9.00846 | 36103 ft | 429 kts | 294° |
| 2026-05-04 14:52 | 36.74597 | -9.06340 | 36105 ft | 429 kts | 294° |
| 2026-05-04 14:52 | 36.77351 | -9.12951 | 36111 ft | 429 kts | 294° |
| 2026-05-04 14:53 | 36.80099 | -9.19562 | 36104 ft | 429 kts | 294° |
| 2026-05-04 14:53 | 36.82845 | -9.26183 | 36105 ft | 429 kts | 294° |
| 2026-05-04 14:54 | 36.85591 | -9.32815 | 36109 ft | 429 kts | 294° |
| 2026-05-04 14:54 | 36.88325 | -9.39435 | 36108 ft | 429 kts | 294° |
| 2026-05-04 14:55 | 36.91059 | -9.46065 | 36110 ft | 429 kts | 294° |
| 2026-05-04 14:55 | 36.93773 | -9.52662 | 36111 ft | 429 kts | 294° |
| 2026-05-04 14:56 | 36.96502 | -9.59309 | 36111 ft | 429 kts | 294° |
| 2026-05-04 14:56 | 36.99227 | -9.65959 | 36111 ft | 429 kts | 294° |
| 2026-05-04 14:57 | 37.01947 | -9.72614 | 36119 ft | 429 kts | 294° |
| 2026-05-04 14:57 | 37.04662 | -9.79266 | 36114 ft | 429 kts | 294° |
| 2026-05-04 14:58 | 37.07355 | -9.85881 | 36119 ft | 429 kts | 294° |
| 2026-05-04 14:58 | 37.10063 | -9.92545 | 36116 ft | 429 kts | 294° |
| 2026-05-04 14:59 | 37.12766 | -9.99212 | 36115 ft | 429 kts | 294° |
| 2026-05-04 15:00 | 37.16812 | -10.09217 | 36115 ft | 429 kts | 294° |
| 2026-05-04 15:00 | 37.19503 | -10.15889 | 36117 ft | 429 kts | 294° |
| 2026-05-04 15:01 | 37.23517 | -10.25867 | 36122 ft | 428 kts | 294° |
| 2026-05-04 15:01 | 37.26197 | -10.32546 | 36120 ft | 428 kts | 294° |
| 2026-05-04 15:02 | 37.28872 | -10.39226 | 36127 ft | 428 kts | 294° |
| 2026-05-04 15:02 | 37.31545 | -10.45918 | 36130 ft | 427 kts | 294° |
| 2026-05-04 15:03 | 37.34210 | -10.52601 | 36125 ft | 427 kts | 294° |
| 2026-05-04 15:03 | 37.36854 | -10.59248 | 36129 ft | 427 kts | 294° |
| 2026-05-04 15:04 | 37.39512 | -10.65943 | 36129 ft | 427 kts | 294° |
| 2026-05-04 15:04 | 37.42162 | -10.72631 | 36127 ft | 427 kts | 294° |
| 2026-05-04 15:05 | 37.44810 | -10.79330 | 36130 ft | 427 kts | 294° |
| 2026-05-04 15:05 | 37.47450 | -10.86024 | 36131 ft | 427 kts | 294° |
| 2026-05-04 15:06 | 37.50072 | -10.92684 | 36132 ft | 427 kts | 294° |
| 2026-05-04 15:07 | 37.54024 | -11.02751 | 36137 ft | 427 kts | 294° |
| 2026-05-04 15:07 | 37.56654 | -11.09468 | 36136 ft | 427 kts | 294° |
| 2026-05-04 15:08 | 37.59283 | -11.16197 | 36137 ft | 427 kts | 294° |
| 2026-05-04 15:08 | 37.61904 | -11.22920 | 36137 ft | 427 kts | 294° |
| 2026-05-04 15:09 | 37.64525 | -11.29658 | 36137 ft | 427 kts | 294° |
| 2026-05-04 15:09 | 37.67140 | -11.36396 | 36140 ft | 427 kts | 294° |
| 2026-05-04 15:10 | 37.71054 | -11.46507 | 36141 ft | 427 kts | 294° |
| 2026-05-04 15:11 | 37.74948 | -11.56597 | 36142 ft | 427 kts | 294° |
| 2026-05-04 15:11 | 37.77546 | -11.63350 | 36144 ft | 427 kts | 294° |
| 2026-05-04 15:12 | 37.80143 | -11.70114 | 36140 ft | 427 kts | 294° |
| 2026-05-04 15:12 | 37.82735 | -11.76879 | 36144 ft | 427 kts | 294° |
| 2026-05-04 15:13 | 37.85327 | -11.83659 | 36146 ft | 427 kts | 294° |
| 2026-05-04 15:13 | 37.87894 | -11.90388 | 36144 ft | 427 kts | 293° |
| 2026-05-04 15:14 | 37.90475 | -11.97170 | 36149 ft | 427 kts | 293° |
| 2026-05-04 15:14 | 37.93050 | -12.03952 | 36142 ft | 427 kts | 293° |
| 2026-05-04 15:15 | 37.95625 | -12.10748 | 36144 ft | 427 kts | 293° |
| 2026-05-04 15:15 | 37.98195 | -12.17545 | 36145 ft | 427 kts | 293° |
| 2026-05-04 15:16 | 38.02045 | -12.27755 | 36155 ft | 428 kts | 293° |
| 2026-05-04 15:17 | 38.05870 | -12.37936 | 36138 ft | 428 kts | 293° |
| 2026-05-04 15:17 | 38.09707 | -12.48181 | 36154 ft | 428 kts | 293° |
| 2026-05-04 15:18 | 38.12246 | -12.54980 | 36143 ft | 428 kts | 293° |
| 2026-05-04 15:19 | 38.16067 | -12.65239 | 36150 ft | 428 kts | 293° |
| 2026-05-04 15:19 | 38.19880 | -12.75512 | 36167 ft | 428 kts | 293° |
| 2026-05-04 15:20 | 38.22419 | -12.82373 | 36170 ft | 428 kts | 293° |
| 2026-05-04 15:20 | 38.24951 | -12.89231 | 36167 ft | 428 kts | 293° |
| 2026-05-04 15:21 | 38.27463 | -12.96047 | 36154 ft | 428 kts | 293° |
| 2026-05-04 15:22 | 38.31252 | -13.06360 | 36174 ft | 428 kts | 293° |
| 2026-05-04 15:22 | 38.35032 | -13.16686 | 36161 ft | 428 kts | 293° |
| 2026-05-04 15:23 | 38.37546 | -13.23571 | 36165 ft | 428 kts | 293° |
| 2026-05-04 15:23 | 38.40039 | -13.30416 | 36166 ft | 428 kts | 293° |
| 2026-05-04 15:24 | 38.45049 | -13.44219 | 36165 ft | 428 kts | 292° |
| 2026-05-04 15:25 | 38.47547 | -13.51125 | 36164 ft | 428 kts | 292° |
| 2026-05-04 15:26 | 38.51272 | -13.61452 | 36170 ft | 428 kts | 292° |
| 2026-05-04 15:26 | 38.55007 | -13.71844 | 36169 ft | 429 kts | 292° |
| 2026-05-04 15:27 | 38.58732 | -13.82244 | 36171 ft | 429 kts | 292° |
| 2026-05-04 15:28 | 38.62450 | -13.92661 | 36174 ft | 429 kts | 292° |
| 2026-05-04 15:29 | 38.66141 | -14.03039 | 36173 ft | 429 kts | 292° |
| 2026-05-04 15:30 | 38.74763 | -14.27426 | 36180 ft | 430 kts | 292° |
| 2026-05-04 15:31 | 38.78449 | -14.37913 | 36177 ft | 430 kts | 292° |
| 2026-05-04 15:32 | 38.84558 | -14.55376 | 36182 ft | 430 kts | 292° |
| 2026-05-04 15:34 | 38.90249 | -14.71740 | 36184 ft | 431 kts | 292° |
| 2026-05-04 15:34 | 38.94296 | -14.83436 | 36186 ft | 431 kts | 292° |
| 2026-05-04 15:35 | 38.97532 | -14.92820 | 36186 ft | 431 kts | 292° |
| 2026-05-04 15:36 | 39.01217 | -15.03382 | 36193 ft | 432 kts | 294° |
| 2026-05-04 15:36 | 39.03910 | -15.10307 | 36193 ft | 432 kts | 295° |
| 2026-05-04 15:37 | 39.06632 | -15.17205 | 36194 ft | 432 kts | 295° |
| 2026-05-04 15:37 | 39.09316 | -15.24090 | 36192 ft | 433 kts | 295° |
| 2026-05-04 15:38 | 39.12000 | -15.31044 | 36193 ft | 433 kts | 294° |
| 2026-05-04 15:38 | 39.14668 | -15.37994 | 36199 ft | 433 kts | 294° |
| 2026-05-04 15:39 | 39.17338 | -15.44966 | 36197 ft | 433 kts | 294° |
| 2026-05-04 15:40 | 39.21316 | -15.55382 | 36198 ft | 434 kts | 294° |
| 2026-05-04 15:40 | 39.23977 | -15.62369 | 36197 ft | 434 kts | 294° |
| 2026-05-04 15:41 | 39.26635 | -15.69366 | 36202 ft | 434 kts | 294° |
| 2026-05-04 15:41 | 39.29288 | -15.76363 | 36199 ft | 434 kts | 294° |
| 2026-05-04 15:42 | 39.31938 | -15.83371 | 36202 ft | 434 kts | 294° |
| 2026-05-04 15:42 | 39.34586 | -15.90390 | 36202 ft | 434 kts | 294° |
| 2026-05-04 15:43 | 39.37231 | -15.97416 | 36207 ft | 434 kts | 294° |
| 2026-05-04 15:43 | 39.39872 | -16.04447 | 36206 ft | 435 kts | 294° |
| 2026-05-04 15:44 | 39.42508 | -16.11484 | 36211 ft | 435 kts | 294° |
| 2026-05-04 15:44 | 39.45126 | -16.18489 | 36210 ft | 435 kts | 294° |
| 2026-05-04 15:45 | 39.47755 | -16.25539 | 36210 ft | 435 kts | 294° |
| 2026-05-04 15:45 | 39.50384 | -16.32608 | 36214 ft | 435 kts | 294° |
| 2026-05-04 15:46 | 39.53011 | -16.39686 | 36217 ft | 436 kts | 294° |
| 2026-05-04 15:46 | 39.55633 | -16.46767 | 36215 ft | 436 kts | 294° |
| 2026-05-04 15:47 | 39.58256 | -16.53871 | 36219 ft | 436 kts | 294° |
| 2026-05-04 15:47 | 39.60856 | -16.60928 | 36219 ft | 436 kts | 294° |
| 2026-05-04 15:48 | 39.63474 | -16.68050 | 36221 ft | 437 kts | 294° |
| 2026-05-04 15:48 | 39.67393 | -16.78742 | 36223 ft | 437 kts | 294° |
| 2026-05-04 15:49 | 39.69981 | -16.85828 | 36221 ft | 437 kts | 294° |
| 2026-05-04 15:49 | 39.72589 | -16.92983 | 36224 ft | 438 kts | 294° |
| 2026-05-04 15:50 | 39.75191 | -17.00140 | 36225 ft | 438 kts | 294° |
| 2026-05-04 15:50 | 39.77795 | -17.07319 | 36222 ft | 438 kts | 294° |
| 2026-05-04 15:51 | 39.80377 | -17.14455 | 36228 ft | 439 kts | 294° |
| 2026-05-04 15:51 | 39.82972 | -17.21647 | 36227 ft | 439 kts | 294° |
| 2026-05-04 15:52 | 39.85567 | -17.28855 | 36231 ft | 439 kts | 294° |
| 2026-05-04 15:52 | 39.88156 | -17.36062 | 36228 ft | 439 kts | 294° |
| 2026-05-04 15:53 | 39.90739 | -17.43273 | 36230 ft | 440 kts | 293° |
| 2026-05-04 15:53 | 39.93320 | -17.50497 | 36236 ft | 440 kts | 293° |
| 2026-05-04 15:54 | 39.95899 | -17.57732 | 36234 ft | 440 kts | 293° |
| 2026-05-04 15:54 | 39.98463 | -17.64942 | 36237 ft | 440 kts | 293° |
| 2026-05-04 15:55 | 40.01035 | -17.72194 | 36237 ft | 441 kts | 293° |
| 2026-05-04 15:55 | 40.03608 | -17.79468 | 36236 ft | 441 kts | 293° |
| 2026-05-04 15:56 | 40.06174 | -17.86739 | 36242 ft | 441 kts | 293° |
| 2026-05-04 15:56 | 40.08738 | -17.94021 | 36238 ft | 441 kts | 293° |
| 2026-05-04 15:57 | 40.11298 | -18.01313 | 36241 ft | 442 kts | 293° |
| 2026-05-04 15:57 | 40.13842 | -18.08576 | 36245 ft | 442 kts | 293° |
| 2026-05-04 15:58 | 40.16400 | -18.15899 | 36247 ft | 442 kts | 293° |
| 2026-05-04 15:58 | 40.18951 | -18.23221 | 36249 ft | 442 kts | 293° |
| 2026-05-04 15:59 | 40.21498 | -18.30550 | 36248 ft | 443 kts | 293° |
| 2026-05-04 15:59 | 40.24044 | -18.37894 | 36246 ft | 443 kts | 293° |
| 2026-05-04 16:00 | 40.26587 | -18.45246 | 36249 ft | 443 kts | 293° |
| 2026-05-04 16:00 | 40.29114 | -18.52575 | 36252 ft | 444 kts | 293° |
| 2026-05-04 16:01 | 40.31656 | -18.59966 | 36257 ft | 444 kts | 293° |
| 2026-05-04 16:01 | 40.34187 | -18.67347 | 36250 ft | 444 kts | 293° |
| 2026-05-04 16:02 | 40.36721 | -18.74749 | 36258 ft | 444 kts | 293° |
| 2026-05-04 16:03 | 40.40496 | -18.85815 | 36260 ft | 445 kts | 293° |
| 2026-05-04 16:03 | 40.43017 | -18.93229 | 36260 ft | 445 kts | 293° |
| 2026-05-04 16:04 | 40.45537 | -19.00661 | 36263 ft | 445 kts | 293° |
| 2026-05-04 16:04 | 40.49310 | -19.11827 | 36261 ft | 446 kts | 293° |
| 2026-05-04 16:05 | 40.51821 | -19.19280 | 36265 ft | 446 kts | 293° |
| 2026-05-04 16:06 | 40.55569 | -19.30444 | 36268 ft | 446 kts | 293° |
| 2026-05-04 16:07 | 40.60569 | -19.45409 | 36263 ft | 447 kts | 293° |
| 2026-05-04 16:08 | 40.65563 | -19.60434 | 36270 ft | 447 kts | 293° |
| 2026-05-04 16:09 | 40.71765 | -19.79209 | 36273 ft | 448 kts | 293° |
| 2026-05-04 16:10 | 40.76725 | -19.94314 | 36274 ft | 448 kts | 293° |
| 2026-05-04 16:11 | 40.81652 | -20.09403 | 36276 ft | 449 kts | 293° |
| 2026-05-04 16:12 | 40.89043 | -20.32191 | 36279 ft | 450 kts | 293° |
| 2026-05-04 16:13 | 40.93931 | -20.47370 | 36281 ft | 450 kts | 293° |
| 2026-05-04 16:14 | 40.98834 | -20.62677 | 36286 ft | 451 kts | 293° |
| 2026-05-04 16:16 | 41.04917 | -20.81791 | 36286 ft | 452 kts | 292° |
| 2026-05-04 16:17 | 41.10974 | -21.00960 | 36291 ft | 452 kts | 292° |
| 2026-05-04 16:18 | 41.15424 | -21.15127 | 36291 ft | 452 kts | 292° |
| 2026-05-04 16:19 | 41.21438 | -21.34394 | 36295 ft | 453 kts | 292° |
| 2026-05-04 16:20 | 41.27429 | -21.53728 | 36296 ft | 453 kts | 292° |
| 2026-05-04 16:22 | 41.33399 | -21.73134 | 36296 ft | 454 kts | 292° |
| 2026-05-04 16:23 | 41.40541 | -21.96538 | 36305 ft | 455 kts | 292° |
| 2026-05-04 16:25 | 41.47642 | -22.20011 | 36305 ft | 456 kts | 292° |
| 2026-05-04 16:26 | 41.55882 | -22.47520 | 36308 ft | 457 kts | 292° |
| 2026-05-04 16:28 | 41.61748 | -22.67281 | 36310 ft | 457 kts | 293° |
| 2026-05-04 16:29 | 41.69890 | -22.94959 | 36317 ft | 458 kts | 292° |
| 2026-05-04 16:31 | 41.75683 | -23.14836 | 36314 ft | 458 kts | 292° |
| 2026-05-04 16:32 | 41.82587 | -23.38725 | 36316 ft | 459 kts | 292° |
| 2026-05-04 16:33 | 41.87174 | -23.54723 | 36321 ft | 460 kts | 292° |
| 2026-05-04 16:34 | 41.90593 | -23.66712 | 36332 ft | 460 kts | 292° |
| 2026-05-04 16:35 | 41.97427 | -23.90849 | 36328 ft | 461 kts | 292° |
| 2026-05-04 16:36 | 42.00855 | -24.02940 | 36333 ft | 461 kts | 294° |
| 2026-05-04 16:37 | 42.04614 | -24.14795 | 36334 ft | 461 kts | 295° |
| 2026-05-04 16:38 | 42.09668 | -24.30678 | 36333 ft | 461 kts | 294° |
| 2026-05-04 16:39 | 42.15893 | -24.50629 | 36340 ft | 462 kts | 294° |
| 2026-05-04 16:40 | 42.20836 | -24.66584 | 36343 ft | 463 kts | 294° |
| 2026-05-04 16:41 | 42.27018 | -24.86662 | 36337 ft | 462 kts | 292° |
| 2026-05-04 16:43 | 42.33120 | -25.06643 | 36340 ft | 460 kts | 292° |
| 2026-05-04 16:43 | 42.36768 | -25.18657 | 36359 ft | 460 kts | 292° |
| 2026-05-04 16:45 | 42.44012 | -25.42683 | 36361 ft | 461 kts | 292° |
| 2026-05-04 16:46 | 42.50046 | -25.62868 | 36364 ft | 463 kts | 292° |
| 2026-05-04 16:47 | 42.54857 | -25.79076 | 36367 ft | 464 kts | 292° |
| 2026-05-04 16:48 | 42.59637 | -25.95279 | 36370 ft | 464 kts | 292° |
| 2026-05-04 16:49 | 42.64424 | -26.11608 | 36376 ft | 464 kts | 292° |
| 2026-05-04 16:50 | 42.69165 | -26.27888 | 36373 ft | 465 kts | 292° |
| 2026-05-04 16:51 | 42.72718 | -26.40155 | 36376 ft | 465 kts | 292° |
| 2026-05-04 16:52 | 42.77438 | -26.56544 | 36376 ft | 465 kts | 292° |
| 2026-05-04 16:53 | 42.80965 | -26.68859 | 36384 ft | 466 kts | 292° |
| 2026-05-04 16:54 | 42.85654 | -26.85328 | 36384 ft | 466 kts | 292° |
| 2026-05-04 16:55 | 42.92638 | -27.10056 | 36391 ft | 467 kts | 292° |
| 2026-05-04 16:56 | 42.98438 | -27.30783 | 36390 ft | 467 kts | 292° |
| 2026-05-04 16:57 | 43.01900 | -27.43238 | 36390 ft | 467 kts | 292° |
| 2026-05-04 16:58 | 43.06497 | -27.59873 | 36389 ft | 468 kts | 292° |
| 2026-05-04 17:00 | 43.13332 | -27.84814 | 36395 ft | 467 kts | 292° |
| 2026-05-04 17:01 | 43.18983 | -28.05631 | 36400 ft | 467 kts | 292° |
| 2026-05-04 17:02 | 43.23116 | -28.20966 | 36404 ft | 466 kts | 292° |
| 2026-05-04 17:03 | 43.26458 | -28.33441 | 36403 ft | 466 kts | 292° |
| 2026-05-04 17:03 | 43.29798 | -28.45969 | 36404 ft | 466 kts | 292° |
| 2026-05-04 17:04 | 43.34228 | -28.62692 | 36408 ft | 465 kts | 291° |
| 2026-05-04 17:05 | 43.38613 | -28.79360 | 36414 ft | 465 kts | 291° |
| 2026-05-04 17:06 | 43.41895 | -28.91909 | 36410 ft | 465 kts | 291° |
| 2026-05-04 17:07 | 43.44792 | -29.03042 | 36419 ft | 464 kts | 291° |
| 2026-05-04 17:07 | 43.47326 | -29.12826 | 36419 ft | 464 kts | 291° |
| 2026-05-04 17:08 | 43.50566 | -29.25391 | 36415 ft | 463 kts | 291° |
| 2026-05-04 17:09 | 43.52714 | -29.33759 | 36412 ft | 463 kts | 291° |
| 2026-05-04 17:09 | 43.54856 | -29.42133 | 36415 ft | 463 kts | 291° |
| 2026-05-04 17:10 | 43.60164 | -29.63018 | 36419 ft | 462 kts | 291° |
| 2026-05-04 17:11 | 43.62279 | -29.71389 | 36415 ft | 461 kts | 291° |
| 2026-05-04 17:12 | 43.65419 | -29.83876 | 36417 ft | 460 kts | 291° |
| 2026-05-04 17:13 | 43.70638 | -30.04780 | 36431 ft | 459 kts | 291° |
| 2026-05-04 17:14 | 43.74778 | -30.21495 | 36418 ft | 459 kts | 291° |
| 2026-05-04 17:15 | 43.77860 | -30.34021 | 36426 ft | 458 kts | 291° |
| 2026-05-04 17:16 | 43.81930 | -30.50668 | 36420 ft | 457 kts | 291° |
| 2026-05-04 17:17 | 43.85968 | -30.67306 | 36424 ft | 456 kts | 291° |
| 2026-05-04 17:17 | 43.88998 | -30.79867 | 36803 ft | 458 kts | 291° |
| 2026-05-04 17:18 | 43.90004 | -30.84056 | 37251 ft | 455 kts | 292° |
| 2026-05-04 17:18 | 43.91975 | -30.92294 | 38145 ft | 450 kts | 292° |
| 2026-05-04 17:19 | 43.93951 | -31.00564 | 38404 ft | 453 kts | 293° |
| 2026-05-04 17:20 | 43.97867 | -31.17061 | 38416 ft | 447 kts | 293° |
| 2026-05-04 17:20 | 44.00760 | -31.29327 | 38416 ft | 444 kts | 293° |
| 2026-05-04 17:21 | 44.04575 | -31.45598 | 38419 ft | 444 kts | 294° |
| 2026-05-04 17:22 | 44.06484 | -31.53788 | 38425 ft | 444 kts | 294° |
| 2026-05-04 17:23 | 44.10263 | -31.70092 | 38417 ft | 444 kts | 294° |
| 2026-05-04 17:24 | 44.13093 | -31.82382 | 38412 ft | 444 kts | 294° |
| 2026-05-04 17:25 | 44.16828 | -31.98710 | 38415 ft | 443 kts | 294° |
| 2026-05-04 17:26 | 44.20537 | -32.15047 | 38411 ft | 441 kts | 294° |
| 2026-05-04 17:27 | 44.25122 | -32.35414 | 38413 ft | 439 kts | 294° |
| 2026-05-04 17:28 | 44.28734 | -32.51594 | 38408 ft | 437 kts | 294° |
| 2026-05-04 17:29 | 44.34090 | -32.75811 | 38405 ft | 434 kts | 294° |
| 2026-05-04 17:31 | 44.38504 | -32.95979 | 38401 ft | 433 kts | 294° |
| 2026-05-04 17:32 | 44.42863 | -33.16087 | 38403 ft | 432 kts | 294° |
| 2026-05-04 17:33 | 44.46326 | -33.32204 | 38404 ft | 432 kts | 294° |
| 2026-05-04 17:34 | 44.49765 | -33.48332 | 38414 ft | 432 kts | 293° |
| 2026-05-04 17:35 | 44.54020 | -33.68462 | 38396 ft | 432 kts | 293° |
| 2026-05-04 17:36 | 44.55718 | -33.76552 | 38398 ft | 432 kts | 293° |
| 2026-05-04 17:36 | 44.57409 | -33.84639 | 38393 ft | 432 kts | 293° |
| 2026-05-04 17:37 | 44.59090 | -33.92709 | 38392 ft | 432 kts | 293° |
| 2026-05-04 17:37 | 44.60771 | -34.00811 | 38396 ft | 432 kts | 293° |
| 2026-05-04 17:38 | 44.62443 | -34.08905 | 38394 ft | 432 kts | 292° |
| 2026-05-04 17:38 | 44.64099 | -34.16954 | 38389 ft | 432 kts | 292° |
| 2026-05-04 17:39 | 44.66590 | -34.29116 | 38385 ft | 432 kts | 292° |
| 2026-05-04 17:39 | 44.68244 | -34.37239 | 38384 ft | 432 kts | 292° |
| 2026-05-04 17:40 | 44.69894 | -34.45367 | 38387 ft | 432 kts | 292° |
| 2026-05-04 17:40 | 44.71524 | -34.53435 | 38383 ft | 431 kts | 292° |
| 2026-05-04 17:41 | 44.73160 | -34.61564 | 38382 ft | 431 kts | 292° |
| 2026-05-04 17:41 | 44.74788 | -34.69685 | 38386 ft | 431 kts | 292° |
| 2026-05-04 17:42 | 44.76399 | -34.77756 | 38383 ft | 431 kts | 291° |
| 2026-05-04 17:42 | 44.78014 | -34.85881 | 38379 ft | 430 kts | 291° |
| 2026-05-04 17:43 | 44.79622 | -34.94000 | 38378 ft | 430 kts | 291° |
| 2026-05-04 17:43 | 44.81222 | -35.02119 | 38375 ft | 430 kts | 291° |
| 2026-05-04 17:44 | 44.82816 | -35.10233 | 38372 ft | 430 kts | 291° |
| 2026-05-04 17:44 | 44.84398 | -35.18324 | 38373 ft | 430 kts | 291° |
| 2026-05-04 17:45 | 44.85980 | -35.26450 | 38366 ft | 430 kts | 290° |
| 2026-05-04 17:45 | 44.87294 | -35.33225 | 38372 ft | 431 kts | 290° |
| 2026-05-04 17:46 | 44.88870 | -35.41379 | 38368 ft | 431 kts | 290° |
| 2026-05-04 17:46 | 44.90442 | -35.49548 | 38366 ft | 431 kts | 290° |
| 2026-05-04 17:47 | 44.92008 | -35.57726 | 38366 ft | 432 kts | 290° |
| 2026-05-04 17:47 | 44.93571 | -35.65920 | 38365 ft | 432 kts | 290° |
| 2026-05-04 17:48 | 44.95129 | -35.74122 | 38363 ft | 433 kts | 289° |
| 2026-05-04 17:48 | 44.96671 | -35.82274 | 38362 ft | 433 kts | 289° |
| 2026-05-04 17:49 | 44.98220 | -35.90498 | 38356 ft | 433 kts | 289° |
| 2026-05-04 17:49 | 44.99762 | -35.98721 | 38355 ft | 433 kts | 289° |
| 2026-05-04 17:50 | 45.01075 | -36.07036 | 38356 ft | 434 kts | 286° |
| 2026-05-04 17:50 | 45.02265 | -36.15385 | 38352 ft | 433 kts | 285° |
| 2026-05-04 17:51 | 45.03449 | -36.23742 | 38353 ft | 433 kts | 285° |
| 2026-05-04 17:51 | 45.04638 | -36.32086 | 38345 ft | 432 kts | 285° |
| 2026-05-04 17:52 | 45.05817 | -36.40366 | 38344 ft | 431 kts | 285° |
| 2026-05-04 17:52 | 45.06997 | -36.48685 | 38344 ft | 431 kts | 284° |
| 2026-05-04 17:53 | 45.08169 | -36.56984 | 38345 ft | 430 kts | 284° |
| 2026-05-04 17:53 | 45.09333 | -36.65281 | 38339 ft | 429 kts | 284° |
| 2026-05-04 17:54 | 45.10488 | -36.73567 | 38332 ft | 429 kts | 284° |
| 2026-05-04 17:54 | 45.11637 | -36.81844 | 38325 ft | 428 kts | 284° |
| 2026-05-04 17:55 | 45.12779 | -36.90123 | 38335 ft | 428 kts | 283° |
| 2026-05-04 17:55 | 45.13907 | -36.98352 | 38340 ft | 427 kts | 283° |
| 2026-05-04 17:56 | 45.15033 | -37.06608 | 38331 ft | 426 kts | 283° |
| 2026-05-04 17:56 | 45.16152 | -37.14860 | 38329 ft | 426 kts | 283° |
| 2026-05-04 17:57 | 45.17263 | -37.23095 | 38325 ft | 425 kts | 283° |
| 2026-05-04 17:57 | 45.18366 | -37.31323 | 38320 ft | 424 kts | 283° |
| 2026-05-04 17:58 | 45.19462 | -37.39545 | 38320 ft | 424 kts | 282° |
| 2026-05-04 17:58 | 45.20546 | -37.47721 | 38317 ft | 423 kts | 282° |
| 2026-05-04 17:59 | 45.21627 | -37.55924 | 38316 ft | 423 kts | 282° |